Wetterdaten: Sonntag, 11.12.2022
Datum Zeit Temp. Aussen Temp. o. S. Temp +5cm Feuchte Auss Luftdruck Regen Sonnenschein Regendauer Solar Windben Empfang
11.12.2022 00:00 -0,1 C -0,6 C -2,2 C 96 % 1012,6 hPa 0,0 l/m 0 min 0 min 0 W/m 3,2 km/h (1 Bft) 93,62 %
11.12.2022 00:02 -0,1 C -0,6 C -2,2 C 96 % 1012,6 hPa 0,0 l/m 0 min 0 min 0 W/m 0,0 km/h (0 Bft) 91,89 %
11.12.2022 00:04 0,0 C -0,6 C -2,2 C 96 % 1012,6 hPa 0,0 l/m 0 min 0 min 0 W/m 0,0 km/h (0 Bft) 93,62 %
11.12.2022 00:08 0,0 C -0,6 C -2,2 C 96 % 1012,6 hPa 0,0 l/m 0 min 0 min 0 W/m 0,0 km/h (0 Bft) 95,70 %
11.12.2022 00:10 0,0 C -0,6 C -2,2 C 96 % 1012,6 hPa 0,0 l/m 0 min 0 min 0 W/m 0,0 km/h (0 Bft) 93,62 %
11.12.2022 00:12 0,0 C -0,6 C -2,2 C 96 % 1012,6 hPa 0,0 l/m 0 min 0 min 0 W/m 0,0 km/h (0 Bft) 95,74 %
11.12.2022 00:14 0,0 C -0,6 C -2,2 C 96 % 1012,6 hPa 0,0 l/m 0 min 0 min 0 W/m 0,0 km/h (0 Bft) 97,87 %
11.12.2022 00:16 0,0 C -0,6 C -2,2 C 96 % 1012,6 hPa 0,0 l/m 0 min 0 min 0 W/m 0,0 km/h (0 Bft) 95,74 %
11.12.2022 00:18 0,0 C -0,6 C -2,2 C 96 % 1012,6 hPa 0,0 l/m 0 min 0 min 0 W/m 0,0 km/h (0 Bft) 95,74 %
11.12.2022 00:20 0,0 C -0,6 C -2,2 C 96 % 1012,5 hPa 0,0 l/m 0 min 0 min 0 W/m 0,0 km/h (0 Bft) 97,83 %
11.12.2022 00:22 0,1 C -0,6 C -2,2 C 96 % 1012,6 hPa 0,0 l/m 0 min 0 min 0 W/m 0,0 km/h (0 Bft) 97,87 %
11.12.2022 00:24 0,0 C -0,6 C -2,8 C 96 % 1012,5 hPa 0,0 l/m 0 min 0 min 0 W/m 3,2 km/h (1 Bft) 97,87 %
11.12.2022 00:26 0,0 C -0,6 C -2,8 C 96 % 1012,5 hPa 0,0 l/m 0 min 0 min 0 W/m 3,2 km/h (1 Bft) 97,87 %
11.12.2022 00:28 0,0 C -0,6 C -2,8 C 96 % 1012,5 hPa 0,0 l/m 0 min 0 min 0 W/m 3,2 km/h (1 Bft) 95,74 %
11.12.2022 00:30 0,0 C -0,6 C -2,8 C 96 % 1012,5 hPa 0,0 l/m 0 min 0 min 0 W/m 3,2 km/h (1 Bft) 97,87 %
11.12.2022 00:32 0,0 C -0,6 C -2,8 C 96 % 1012,5 hPa 0,0 l/m 0 min 0 min 0 W/m 0,0 km/h (0 Bft) 97,83 %
11.12.2022 00:34 0,0 C -0,6 C -2,8 C 96 % 1012,5 hPa 0,0 l/m 0 min 0 min 0 W/m 12,9 km/h (3 Bft) 97,87 %
11.12.2022 00:36 -0,1 C -0,6 C -2,2 C 96 % 1012,5 hPa 0,0 l/m 0 min 0 min 0 W/m 6,4 km/h (2 Bft) 95,74 %
11.12.2022 00:38 -0,1 C -0,6 C -2,2 C 96 % 1012,5 hPa 0,0 l/m 0 min 0 min 0 W/m 3,2 km/h (1 Bft) 97,87 %
11.12.2022 00:40 -0,1 C -0,6 C -2,2 C 96 % 1012,5 hPa 0,0 l/m 0 min 0 min 0 W/m 6,4 km/h (2 Bft) 95,74 %
11.12.2022 00:42 -0,1 C -0,6 C -2,2 C 96 % 1012,5 hPa 0,0 l/m 0 min 0 min 0 W/m 6,4 km/h (2 Bft) 97,87 %
11.12.2022 00:44 -0,1 C -0,6 C -2,2 C 96 % 1012,5 hPa 0,0 l/m 0 min 0 min 0 W/m 6,4 km/h (2 Bft) 95,65 %
11.12.2022 00:46 -0,1 C -0,6 C -2,2 C 96 % 1012,5 hPa 0,0 l/m 0 min 0 min 0 W/m 3,2 km/h (1 Bft) 97,87 %
11.12.2022 00:48 -0,1 C -0,6 C -2,2 C 96 % 1012,4 hPa 0,0 l/m 0 min 0 min 0 W/m 6,4 km/h (2 Bft) 97,87 %
11.12.2022 00:50 -0,1 C -0,6 C -2,2 C 96 % 1012,4 hPa 0,0 l/m 0 min 0 min 0 W/m 3,2 km/h (1 Bft) 97,87 %
11.12.2022 00:52 -0,1 C -0,6 C -2,2 C 96 % 1012,5 hPa 0,0 l/m 0 min 0 min 0 W/m 3,2 km/h (1 Bft) 95,74 %
11.12.2022 00:54 -0,1 C -0,6 C -2,2 C 96 % 1012,5 hPa 0,0 l/m 0 min 0 min 0 W/m 6,4 km/h (2 Bft) 95,74 %
11.12.2022 00:56 -0,1 C -0,6 C -2,2 C 96 % 1012,5 hPa 0,0 l/m 0 min 0 min 0 W/m 6,4 km/h (2 Bft) 97,83 %
11.12.2022 00:58 -0,1 C -0,6 C -2,2 C 96 % 1012,5 hPa 0,0 l/m 0 min 0 min 0 W/m 3,2 km/h (1 Bft) 100,00 %
11.12.2022 01:00 -0,1 C -0,6 C -2,2 C 96 % 1012,5 hPa 0,0 l/m 0 min 0 min 0 W/m 3,2 km/h (1 Bft) 97,87 %
11.12.2022 01:02 -0,2 C -0,6 C -2,2 C 96 % 1012,5 hPa 0,0 l/m 0 min 0 min 0 W/m 3,2 km/h (1 Bft) 95,74 %
11.12.2022 01:04 -0,2 C -0,6 C -2,2 C 96 % 1012,4 hPa 0,0 l/m 0 min 0 min 0 W/m 3,2 km/h (1 Bft) 97,87 %
11.12.2022 01:06 -0,2 C -0,6 C -2,2 C 96 % 1012,5 hPa 0,0 l/m 0 min 0 min 0 W/m 6,4 km/h (2 Bft) 100,00 %
11.12.2022 01:08 -0,2 C -0,6 C -2,2 C 96 % 1012,5 hPa 0,0 l/m 0 min 0 min 0 W/m 3,2 km/h (1 Bft) 100,00 %
11.12.2022 01:10 -0,2 C -0,6 C -2,2 C 96 % 1012,5 hPa 0,0 l/m 0 min 0 min 0 W/m 3,2 km/h (1 Bft) 97,83 %
11.12.2022 01:12 -0,2 C -0,6 C -2,2 C 96 % 1012,4 hPa 0,0 l/m 0 min 0 min 0 W/m 3,2 km/h (1 Bft) 97,87 %
11.12.2022 01:14 -0,2 C -0,6 C -2,2 C 96 % 1012,5 hPa 0,0 l/m 0 min 0 min 0 W/m 3,2 km/h (1 Bft) 97,87 %
11.12.2022 01:16 -0,2 C -0,6 C -2,2 C 96 % 1012,5 hPa 0,0 l/m 0 min 0 min 0 W/m 0,0 km/h (0 Bft) 100,00 %
11.12.2022 01:18 -0,2 C -0,6 C -2,2 C 96 % 1012,5 hPa 0,0 l/m 0 min 0 min 0 W/m 0,0 km/h (0 Bft) 100,00 %
11.12.2022 01:20 -0,2 C -0,6 C -2,2 C 96 % 1012,5 hPa 0,0 l/m 0 min 0 min 0 W/m 0,0 km/h (0 Bft) 97,87 %
11.12.2022 01:22 -0,2 C -0,6 C -2,2 C 96 % 1012,4 hPa 0,0 l/m 0 min 0 min 0 W/m 0,0 km/h (0 Bft) 97,83 %
11.12.2022 01:24 -0,2 C -0,6 C -2,2 C 96 % 1012,4 hPa 0,0 l/m 0 min 0 min 0 W/m 0,0 km/h (0 Bft) 100,00 %
11.12.2022 01:26 -0,2 C -0,6 C -2,2 C 96 % 1012,4 hPa 0,0 l/m 0 min 0 min 0 W/m 0,0 km/h (0 Bft) 100,00 %
11.12.2022 01:28 -0,2 C -0,6 C -2,2 C 96 % 1012,4 hPa 0,0 l/m 0 min 0 min 0 W/m 0,0 km/h (0 Bft) 100,00 %
11.12.2022 01:30 -0,2 C -0,6 C -2,2 C 96 % 1012,5 hPa 0,0 l/m 0 min 0 min 0 W/m 0,0 km/h (0 Bft) 100,00 %
11.12.2022 01:32 -0,1 C -0,6 C -2,2 C 96 % 1012,5 hPa 0,0 l/m 0 min 0 min 0 W/m 0,0 km/h (0 Bft) 97,87 %
11.12.2022 01:34 -0,1 C -0,6 C -2,2 C 96 % 1012,5 hPa 0,0 l/m 0 min 0 min 0 W/m 0,0 km/h (0 Bft) 93,48 %
11.12.2022 01:36 -0,1 C -0,6 C -2,2 C 96 % 1012,5 hPa 0,0 l/m 0 min 0 min 0 W/m 0,0 km/h (0 Bft) 95,74 %
11.12.2022 01:38 -0,1 C -0,6 C -2,2 C 96 % 1012,5 hPa 0,0 l/m 0 min 0 min 0 W/m 0,0 km/h (0 Bft) 97,87 %
11.12.2022 01:40 -0,1 C -0,6 C -2,2 C 96 % 1012,5 hPa 0,0 l/m 0 min 0 min 0 W/m 0,0 km/h (0 Bft) 97,87 %
11.12.2022 01:42 -0,1 C -0,6 C -2,2 C 96 % 1012,5 hPa 0,0 l/m 0 min 0 min 0 W/m 3,2 km/h (1 Bft) 97,87 %
11.12.2022 01:44 -0,1 C -0,6 C -2,2 C 96 % 1012,5 hPa 0,0 l/m 0 min 0 min 0 W/m 6,4 km/h (2 Bft) 91,49 %
11.12.2022 01:46 -0,1 C -0,6 C -2,2 C 96 % 1012,5 hPa 0,0 l/m 0 min 0 min 0 W/m 6,4 km/h (2 Bft) 95,74 %
11.12.2022 01:48 -0,2 C -0,6 C -2,2 C 96 % 1012,5 hPa 0,0 l/m 0 min 0 min 0 W/m 3,2 km/h (1 Bft) 95,65 %
11.12.2022 01:50 -0,2 C -0,6 C -2,2 C 96 % 1012,5 hPa 0,0 l/m 0 min 0 min 0 W/m 6,4 km/h (2 Bft) 95,74 %
11.12.2022 01:52 -0,2 C -0,6 C -2,2 C 96 % 1012,4 hPa 0,0 l/m 0 min 0 min 0 W/m 3,2 km/h (1 Bft) 95,74 %
11.12.2022 01:54 -0,2 C -0,6 C -2,2 C 96 % 1012,5 hPa 0,0 l/m 0 min 0 min 0 W/m 3,2 km/h (1 Bft) 95,74 %
11.12.2022 01:56 -0,2 C -0,6 C -2,2 C 96 % 1012,5 hPa 0,0 l/m 0 min 0 min 0 W/m 3,2 km/h (1 Bft) 95,74 %
11.12.2022 01:58 -0,2 C -0,6 C -2,2 C 96 % 1012,4 hPa 0,0 l/m 0 min 0 min 0 W/m 6,4 km/h (2 Bft) 95,74 %
11.12.2022 02:00 -0,2 C -0,6 C -2,2 C 96 % 1012,4 hPa 0,0 l/m 0 min 0 min 0 W/m 3,2 km/h (1 Bft) 97,83 %
11.12.2022 02:02 -0,2 C -0,6 C -2,2 C 96 % 1012,4 hPa 0,0 l/m 0 min 0 min 0 W/m 3,2 km/h (1 Bft) 97,87 %
11.12.2022 02:04 -0,1 C -0,6 C -2,2 C 96 % 1012,4 hPa 0,0 l/m 0 min 0 min 0 W/m 0,0 km/h (0 Bft) 97,87 %
11.12.2022 02:06 -0,1 C -0,6 C -2,2 C 96 % 1012,4 hPa 0,0 l/m 0 min 0 min 0 W/m 3,2 km/h (1 Bft) 97,87 %
11.12.2022 02:08 -0,1 C -0,6 C -2,2 C 96 % 1012,3 hPa 0,0 l/m 0 min 0 min 0 W/m 3,2 km/h (1 Bft) 95,74 %
11.12.2022 02:10 -0,2 C -0,6 C -2,2 C 96 % 1012,4 hPa 0,0 l/m 0 min 0 min 0 W/m 6,4 km/h (2 Bft) 97,87 %
11.12.2022 02:12 -0,2 C -0,6 C -2,2 C 96 % 1012,4 hPa 0,0 l/m 0 min 0 min 0 W/m 6,4 km/h (2 Bft) 97,83 %
11.12.2022 02:14 -0,2 C -0,6 C -2,2 C 96 % 1012,4 hPa 0,0 l/m 0 min 0 min 0 W/m 9,7 km/h (2 Bft) 95,74 %
11.12.2022 02:16 -0,2 C -0,6 C -2,2 C 96 % 1012,3 hPa 0,0 l/m 0 min 0 min 0 W/m 3,2 km/h (1 Bft) 100,00 %
11.12.2022 02:18 -0,2 C -0,6 C -2,2 C 96 % 1012,3 hPa 0,0 l/m 0 min 0 min 0 W/m 0,0 km/h (0 Bft) 95,74 %
11.12.2022 02:20 -0,2 C -0,6 C -2,2 C 96 % 1012,3 hPa 0,0 l/m 0 min 0 min 0 W/m 0,0 km/h (0 Bft) 97,87 %
11.12.2022 02:22 -0,2 C -0,6 C -2,2 C 96 % 1012,4 hPa 0,0 l/m 0 min 0 min 0 W/m 0,0 km/h (0 Bft) 93,62 %
11.12.2022 02:24 -0,2 C -0,6 C -2,2 C 96 % 1012,4 hPa 0,0 l/m 0 min 0 min 0 W/m 6,4 km/h (2 Bft) 97,87 %
11.12.2022 02:26 -0,2 C -0,6 C -2,2 C 96 % 1012,4 hPa 0,0 l/m 0 min 0 min 0 W/m 3,2 km/h (1 Bft) 97,83 %
11.12.2022 02:28 -0,2 C -0,6 C -2,2 C 96 % 1012,4 hPa 0,0 l/m 0 min 0 min 0 W/m 3,2 km/h (1 Bft) 100,00 %
11.12.2022 02:30 -0,2 C -0,6 C -2,2 C 96 % 1012,4 hPa 0,0 l/m 0 min 0 min 0 W/m 6,4 km/h (2 Bft) 100,00 %
11.12.2022 02:32 -0,2 C -0,6 C -2,2 C 96 % 1012,4 hPa 0,0 l/m 0 min 0 min 0 W/m 9,7 km/h (2 Bft) 100,00 %
11.12.2022 02:34 -0,2 C -0,6 C -2,2 C 96 % 1012,4 hPa 0,0 l/m 0 min 0 min 0 W/m 6,4 km/h (2 Bft) 100,00 %
11.12.2022 02:36 -0,2 C -0,6 C -2,2 C 96 % 1012,4 hPa 0,0 l/m 0 min 0 min 0 W/m 6,4 km/h (2 Bft) 100,00 %
11.12.2022 02:38 -0,2 C -0,6 C -2,2 C 96 % 1012,4 hPa 0,0 l/m 0 min 0 min 0 W/m 3,2 km/h (1 Bft) 100,00 %
11.12.2022 02:40 -0,2 C -0,6 C -2,2 C 96 % 1012,4 hPa 0,0 l/m 0 min 0 min 0 W/m 3,2 km/h (1 Bft) 100,00 %
11.12.2022 02:42 -0,2 C -0,6 C -2,2 C 96 % 1012,4 hPa 0,0 l/m 0 min 0 min 0 W/m 6,4 km/h (2 Bft) 97,87 %
11.12.2022 02:44 -0,2 C -0,6 C -2,2 C 96 % 1012,4 hPa 0,0 l/m 0 min 0 min 0 W/m 6,4 km/h (2 Bft) 100,00 %
11.12.2022 02:46 -0,2 C -0,6 C -2,2 C 96 % 1012,3 hPa 0,0 l/m 0 min 0 min 0 W/m 3,2 km/h (1 Bft) 100,00 %
11.12.2022 02:48 -0,2 C -0,6 C -2,2 C 96 % 1012,3 hPa 0,0 l/m 0 min 0 min 0 W/m 6,4 km/h (2 Bft) 63,83 %
11.12.2022 02:50 -0,2 C -0,6 C -2,2 C 96 % 1012,3 hPa 0,0 l/m 0 min 0 min 0 W/m 6,4 km/h (2 Bft) 89,29 %
11.12.2022 02:52 -0,2 C -0,6 C -2,2 C 96 % 1012,3 hPa 0,0 l/m 0 min 0 min 0 W/m 6,4 km/h (2 Bft) 100,00 %
11.12.2022 02:54 -0,2 C -0,6 C -2,2 C 96 % 1012,3 hPa 0,0 l/m 0 min 0 min 0 W/m 3,2 km/h (1 Bft) 97,87 %
11.12.2022 02:56 -0,2 C -0,6 C -2,2 C 96 % 1012,3 hPa 0,0 l/m 0 min 0 min 0 W/m 6,4 km/h (2 Bft) 100,00 %
11.12.2022 02:58 -0,2 C -0,6 C -2,2 C 96 % 1012,3 hPa 0,0 l/m 0 min 0 min 0 W/m 3,2 km/h (1 Bft) 100,00 %
11.12.2022 03:00 -0,2 C -0,6 C -2,2 C 96 % 1012,3 hPa 0,0 l/m 0 min 0 min 0 W/m 0,0 km/h (0 Bft) 97,87 %
11.12.2022 03:02 -0,2 C -0,6 C -2,2 C 96 % 1012,2 hPa 0,0 l/m 0 min 0 min 0 W/m 6,4 km/h (2 Bft) 100,00 %
11.12.2022 03:04 -0,2 C -0,6 C -2,2 C 96 % 1012,2 hPa 0,0 l/m 0 min 0 min 0 W/m 6,4 km/h (2 Bft) 97,87 %
11.12.2022 03:06 -0,2 C -0,6 C -2,2 C 96 % 1012,2 hPa 0,0 l/m 0 min 0 min 0 W/m 3,2 km/h (1 Bft) 97,87 %
11.12.2022 03:08 -0,2 C -0,6 C -2,2 C 96 % 1012,2 hPa 0,0 l/m 0 min 0 min 0 W/m 9,7 km/h (2 Bft) 100,00 %
11.12.2022 03:10 -0,2 C -0,6 C -2,2 C 96 % 1012,2 hPa 0,0 l/m 0 min 0 min 0 W/m 6,4 km/h (2 Bft) 100,00 %
11.12.2022 03:12 -0,2 C -0,6 C -2,2 C 96 % 1012,2 hPa 0,0 l/m 0 min 0 min 0 W/m 6,4 km/h (2 Bft) 100,00 %
11.12.2022 03:14 -0,1 C -0,6 C -2,2 C 96 % 1012,2 hPa 0,0 l/m 0 min 0 min 0 W/m 3,2 km/h (1 Bft) 97,87 %
11.12.2022 03:16 -0,1 C -0,6 C -2,2 C 96 % 1012,1 hPa 0,0 l/m 0 min 0 min 0 W/m 3,2 km/h (1 Bft) 100,00 %
11.12.2022 03:18 -0,1 C -0,6 C -2,2 C 96 % 1012,1 hPa 0,0 l/m 0 min 0 min 0 W/m 0,0 km/h (0 Bft) 95,74 %
11.12.2022 03:20 -0,1 C -0,6 C -2,2 C 96 % 1012,2 hPa 0,0 l/m 0 min 0 min 0 W/m 3,2 km/h (1 Bft) 95,74 %
11.12.2022 03:22 -0,1 C -0,6 C -2,2 C 96 % 1012,1 hPa 0,0 l/m 0 min 0 min 0 W/m 3,2 km/h (1 Bft) 95,74 %
11.12.2022 03:24 -0,1 C -0,6 C -2,2 C 96 % 1012,1 hPa 0,0 l/m 0 min 0 min 0 W/m 0,0 km/h (0 Bft) 95,74 %
11.12.2022 03:26 -0,1 C -0,6 C -2,2 C 96 % 1012,1 hPa 0,0 l/m 0 min 0 min 0 W/m 3,2 km/h (1 Bft) 95,74 %
11.12.2022 03:28 -0,1 C -0,6 C -2,2 C 96 % 1012,0 hPa 0,0 l/m 0 min 0 min 0 W/m 0,0 km/h (0 Bft) 95,65 %
11.12.2022 03:30 -0,1 C -0,6 C -2,2 C 96 % 1012,1 hPa 0,0 l/m 0 min 0 min 0 W/m 3,2 km/h (1 Bft) 89,36 %
11.12.2022 03:32 -0,1 C -0,6 C -2,2 C 96 % 1012,0 hPa 0,0 l/m 0 min 0 min 0 W/m 0,0 km/h (0 Bft) 95,74 %
11.12.2022 03:34 -0,1 C -0,6 C -2,2 C 96 % 1012,1 hPa 0,0 l/m 0 min 0 min 0 W/m 6,4 km/h (2 Bft) 93,62 %
11.12.2022 03:36 0,0 C -0,6 C -2,2 C 96 % 1012,1 hPa 0,0 l/m 0 min 0 min 0 W/m 3,2 km/h (1 Bft) 91,49 %
11.12.2022 03:38 0,0 C -0,6 C -2,2 C 96 % 1012,1 hPa 0,0 l/m 0 min 0 min 0 W/m 6,4 km/h (2 Bft) 95,74 %
11.12.2022 03:40 0,0 C -0,6 C -2,2 C 96 % 1012,0 hPa 0,0 l/m 0 min 0 min 0 W/m 3,2 km/h (1 Bft) 95,65 %
11.12.2022 03:42 0,0 C 0,0 C -2,2 C 96 % 1012,0 hPa 0,0 l/m 0 min 0 min 0 W/m 3,2 km/h (1 Bft) 93,62 %
11.12.2022 03:44 0,0 C 0,0 C -2,2 C 96 % 1012,0 hPa 0,0 l/m 0 min 0 min 0 W/m 0,0 km/h (0 Bft) 95,74 %
11.12.2022 03:46 0,0 C 0,0 C -2,2 C 96 % 1012,0 hPa 0,0 l/m 0 min 0 min 0 W/m 9,7 km/h (2 Bft) 95,74 %
11.12.2022 03:48 0,1 C -0,6 C -2,2 C 96 % 1012,0 hPa 0,0 l/m 0 min 0 min 0 W/m 3,2 km/h (1 Bft) 93,62 %
11.12.2022 03:50 0,1 C 0,0 C -2,2 C 96 % 1012,0 hPa 0,0 l/m 0 min 0 min 0 W/m 0,0 km/h (0 Bft) 97,87 %
11.12.2022 03:52 0,1 C 0,0 C -2,2 C 96 % 1012,0 hPa 0,0 l/m 0 min 0 min 0 W/m 6,4 km/h (2 Bft) 97,87 %
11.12.2022 03:54 0,1 C 0,0 C -2,2 C 96 % 1011,9 hPa 0,0 l/m 0 min 0 min 0 W/m 6,4 km/h (2 Bft) 95,65 %
11.12.2022 03:56 0,1 C 0,0 C -2,2 C 96 % 1011,9 hPa 0,0 l/m 0 min 0 min 0 W/m 12,9 km/h (3 Bft) 97,87 %
11.12.2022 03:58 0,1 C 0,0 C -2,2 C 96 % 1011,9 hPa 0,0 l/m 0 min 0 min 0 W/m 6,4 km/h (2 Bft) 95,74 %
11.12.2022 04:00 0,1 C -0,6 C -2,2 C 96 % 1012,0 hPa 0,0 l/m 0 min 0 min 0 W/m 9,7 km/h (2 Bft) 93,62 %
11.12.2022 04:02 0,1 C 0,0 C -2,2 C 96 % 1011,9 hPa 0,0 l/m 0 min 0 min 0 W/m 3,2 km/h (1 Bft) 100,00 %
11.12.2022 04:07 0,1 C 0,0 C -2,2 C 96 % 1011,9 hPa 0,0 l/m 0 min 0 min 0 W/m 9,7 km/h (2 Bft) 100,00 %
11.12.2022 04:10 0,1 C 0,0 C -2,2 C 96 % 1011,9 hPa 0,0 l/m 0 min 0 min 0 W/m 3,2 km/h (1 Bft) 100,00 %
11.12.2022 04:12 0,1 C 0,0 C -2,2 C 96 % 1011,8 hPa 0,0 l/m 0 min 0 min 0 W/m 3,2 km/h (1 Bft) 93,62 %
11.12.2022 04:14 0,1 C 0,0 C -2,2 C 96 % 1011,8 hPa 0,0 l/m 0 min 0 min 0 W/m 6,4 km/h (2 Bft) 97,87 %
11.12.2022 04:16 0,1 C 0,0 C -2,2 C 96 % 1011,8 hPa 0,0 l/m 0 min 0 min 0 W/m 3,2 km/h (1 Bft) 97,83 %
11.12.2022 04:18 0,1 C 0,0 C -2,2 C 96 % 1011,9 hPa 0,0 l/m 0 min 0 min 0 W/m 0,0 km/h (0 Bft) 52,27 %
11.12.2022 04:20 0,1 C 0,0 C -2,2 C 96 % 1011,8 hPa 0,0 l/m 0 min 0 min 0 W/m 3,2 km/h (1 Bft) 97,87 %
11.12.2022 04:22 0,2 C 0,0 C -2,2 C 96 % 1011,8 hPa 0,0 l/m 0 min 0 min 0 W/m 6,4 km/h (2 Bft) 97,87 %
11.12.2022 04:24 0,1 C 0,0 C -2,2 C 96 % 1011,9 hPa 0,0 l/m 0 min 0 min 0 W/m 6,4 km/h (2 Bft) 97,87 %
11.12.2022 04:26 0,1 C 0,0 C -2,2 C 96 % 1011,9 hPa 0,0 l/m 0 min 0 min 0 W/m 6,4 km/h (2 Bft) 95,74 %
11.12.2022 04:28 0,1 C 0,0 C -2,2 C 96 % 1011,9 hPa 0,0 l/m 0 min 0 min 0 W/m 9,7 km/h (2 Bft) 95,74 %
11.12.2022 04:30 0,1 C 0,0 C -2,2 C 96 % 1011,9 hPa 0,0 l/m 0 min 0 min 0 W/m 6,4 km/h (2 Bft) 97,83 %
11.12.2022 04:32 0,1 C 0,0 C -2,2 C 96 % 1011,8 hPa 0,0 l/m 0 min 0 min 0 W/m 6,4 km/h (2 Bft) 97,87 %
11.12.2022 04:34 0,1 C 0,0 C -2,2 C 96 % 1011,8 hPa 0,0 l/m 0 min 0 min 0 W/m 6,4 km/h (2 Bft) 97,87 %
11.12.2022 04:36 0,1 C 0,0 C -2,2 C 96 % 1011,9 hPa 0,0 l/m 0 min 0 min 0 W/m 3,2 km/h (1 Bft) 97,87 %
11.12.2022 04:38 0,1 C 0,0 C -2,2 C 96 % 1011,9 hPa 0,0 l/m 0 min 0 min 0 W/m 3,2 km/h (1 Bft) 97,87 %
11.12.2022 04:40 0,1 C 0,0 C -2,2 C 96 % 1011,9 hPa 0,0 l/m 0 min 0 min 0 W/m 6,4 km/h (2 Bft) 97,87 %
11.12.2022 04:42 0,1 C 0,0 C -2,2 C 96 % 1011,9 hPa 0,0 l/m 0 min 0 min 0 W/m 6,4 km/h (2 Bft) 95,65 %
11.12.2022 04:44 0,1 C 0,0 C -2,2 C 96 % 1011,9 hPa 0,0 l/m 0 min 0 min 0 W/m 6,4 km/h (2 Bft) 97,87 %
11.12.2022 04:46 0,1 C 0,0 C -2,2 C 96 % 1011,9 hPa 0,0 l/m 0 min 0 min 0 W/m 3,2 km/h (1 Bft) 97,87 %
11.12.2022 04:48 0,1 C 0,0 C -2,2 C 96 % 1011,9 hPa 0,0 l/m 0 min 0 min 0 W/m 9,7 km/h (2 Bft) 97,87 %
11.12.2022 04:50 0,2 C 0,0 C -2,2 C 96 % 1011,9 hPa 0,0 l/m 0 min 0 min 0 W/m 6,4 km/h (2 Bft) 97,87 %
11.12.2022 04:52 0,1 C 0,0 C -2,2 C 96 % 1011,9 hPa 0,0 l/m 0 min 0 min 0 W/m 9,7 km/h (2 Bft) 97,87 %
11.12.2022 04:54 0,1 C 0,0 C -2,2 C 96 % 1011,9 hPa 0,0 l/m 0 min 0 min 0 W/m 9,7 km/h (2 Bft) 100,00 %
11.12.2022 04:56 0,1 C 0,0 C -2,2 C 96 % 1011,9 hPa 0,0 l/m 0 min 0 min 0 W/m 9,7 km/h (2 Bft) 100,00 %
11.12.2022 04:58 0,1 C 0,0 C -2,2 C 96 % 1011,9 hPa 0,0 l/m 0 min 0 min 0 W/m 3,2 km/h (1 Bft) 97,87 %
11.12.2022 05:00 0,1 C 0,0 C -2,2 C 96 % 1011,9 hPa 0,0 l/m 0 min 0 min 0 W/m 3,2 km/h (1 Bft) 97,56 %
11.12.2022 05:02 0,1 C 0,0 C -2,2 C 96 % 1011,8 hPa 0,0 l/m 0 min 0 min 0 W/m 9,7 km/h (2 Bft) 78,72 %
11.12.2022 05:04 0,1 C 0,0 C -2,2 C 96 % 1011,8 hPa 0,0 l/m 0 min 0 min 0 W/m 3,2 km/h (1 Bft) 75,00 %
11.12.2022 05:06 0,2 C 0,0 C -2,2 C 96 % 1011,8 hPa 0,0 l/m 0 min 0 min 0 W/m 6,4 km/h (2 Bft) 98,08 %
11.12.2022 05:08 0,1 C 0,0 C -2,2 C 96 % 1011,8 hPa 0,0 l/m 0 min 0 min 0 W/m 6,4 km/h (2 Bft) 97,87 %
11.12.2022 05:10 0,1 C 0,0 C -2,2 C 96 % 1011,8 hPa 0,0 l/m 0 min 0 min 0 W/m 3,2 km/h (1 Bft) 95,74 %
11.12.2022 05:12 0,1 C 0,0 C -2,2 C 96 % 1011,8 hPa 0,0 l/m 0 min 0 min 0 W/m 3,2 km/h (1 Bft) 97,87 %
11.12.2022 05:14 0,1 C 0,0 C -2,2 C 96 % 1011,8 hPa 0,0 l/m 0 min 0 min 0 W/m 6,4 km/h (2 Bft) 95,74 %
11.12.2022 05:16 0,1 C 0,0 C -2,2 C 96 % 1011,8 hPa 0,0 l/m 0 min 0 min 0 W/m 9,7 km/h (2 Bft) 97,87 %
11.12.2022 05:18 0,1 C 0,0 C -2,2 C 96 % 1011,7 hPa 0,0 l/m 0 min 0 min 0 W/m 6,4 km/h (2 Bft) 93,62 %
11.12.2022 05:20 0,1 C -0,6 C -2,2 C 96 % 1011,7 hPa 0,0 l/m 0 min 0 min 0 W/m 9,7 km/h (2 Bft) 97,83 %
11.12.2022 05:22 0,1 C 0,0 C -2,2 C 95 % 1011,8 hPa 0,0 l/m 0 min 0 min 0 W/m 3,2 km/h (1 Bft) 97,87 %
11.12.2022 05:24 0,1 C -0,6 C -2,2 C 95 % 1011,8 hPa 0,0 l/m 0 min 0 min 0 W/m 12,9 km/h (3 Bft) 97,87 %
11.12.2022 05:26 0,1 C -0,6 C -2,2 C 95 % 1011,8 hPa 0,0 l/m 0 min 0 min 0 W/m 9,7 km/h (2 Bft) 95,74 %
11.12.2022 05:28 0,1 C -0,6 C -2,2 C 95 % 1011,7 hPa 0,0 l/m 0 min 0 min 0 W/m 3,2 km/h (1 Bft) 97,87 %
11.12.2022 05:30 0,1 C -0,6 C -2,2 C 95 % 1011,7 hPa 0,0 l/m 0 min 0 min 0 W/m 6,4 km/h (2 Bft) 97,87 %
11.12.2022 05:32 0,1 C 0,0 C -2,2 C 95 % 1011,7 hPa 0,0 l/m 0 min 0 min 0 W/m 6,4 km/h (2 Bft) 95,65 %
11.12.2022 05:34 0,1 C -0,6 C -2,2 C 95 % 1011,6 hPa 0,0 l/m 0 min 0 min 0 W/m 6,4 km/h (2 Bft) 97,87 %
11.12.2022 05:36 0,1 C -0,6 C -2,2 C 95 % 1011,6 hPa 0,0 l/m 0 min 0 min 0 W/m 12,9 km/h (3 Bft) 97,87 %
11.12.2022 05:38 0,1 C -0,6 C -2,2 C 95 % 1011,6 hPa 0,0 l/m 0 min 0 min 0 W/m 12,9 km/h (3 Bft) 100,00 %
11.12.2022 05:40 0,1 C -0,6 C -2,2 C 95 % 1011,6 hPa 0,0 l/m 0 min 0 min 0 W/m 9,7 km/h (2 Bft) 100,00 %
11.12.2022 05:42 0,1 C -0,6 C -2,2 C 95 % 1011,5 hPa 0,0 l/m 0 min 0 min 0 W/m 9,7 km/h (2 Bft) 95,74 %
11.12.2022 05:44 0,1 C -0,6 C -2,2 C 95 % 1011,5 hPa 0,0 l/m 0 min 0 min 0 W/m 6,4 km/h (2 Bft) 100,00 %
11.12.2022 05:46 0,1 C -0,6 C -2,2 C 95 % 1011,5 hPa 0,0 l/m 0 min 0 min 0 W/m 9,7 km/h (2 Bft) 100,00 %
11.12.2022 05:48 0,1 C -0,6 C -2,2 C 95 % 1011,4 hPa 0,0 l/m 0 min 0 min 0 W/m 6,4 km/h (2 Bft) 100,00 %
11.12.2022 05:50 0,1 C -0,6 C -2,2 C 95 % 1011,5 hPa 0,0 l/m 0 min 0 min 0 W/m 6,4 km/h (2 Bft) 100,00 %
11.12.2022 05:52 0,1 C -0,6 C -2,2 C 95 % 1011,5 hPa 0,0 l/m 0 min 0 min 0 W/m 6,4 km/h (2 Bft) 100,00 %
11.12.2022 05:54 0,1 C -0,6 C -2,2 C 95 % 1011,5 hPa 0,0 l/m 0 min 0 min 0 W/m 9,7 km/h (2 Bft) 95,74 %
11.12.2022 05:56 0,1 C -0,6 C -2,2 C 95 % 1011,5 hPa 0,0 l/m 0 min 0 min 0 W/m 12,9 km/h (3 Bft) 100,00 %
11.12.2022 05:58 0,1 C -0,6 C -2,2 C 95 % 1011,5 hPa 0,0 l/m 0 min 0 min 0 W/m 12,9 km/h (3 Bft) 100,00 %
11.12.2022 06:00 0,1 C -0,6 C -2,2 C 95 % 1011,5 hPa 0,0 l/m 0 min 0 min 0 W/m 12,9 km/h (3 Bft) 100,00 %
11.12.2022 06:02 0,1 C -0,6 C -2,2 C 95 % 1011,5 hPa 0,0 l/m 0 min 0 min 0 W/m 12,9 km/h (3 Bft) 97,87 %
11.12.2022 06:04 0,1 C -0,6 C -2,2 C 95 % 1011,6 hPa 0,0 l/m 0 min 0 min 0 W/m 9,7 km/h (2 Bft) 100,00 %
11.12.2022 06:08 0,1 C -0,6 C -2,2 C 95 % 1011,6 hPa 0,0 l/m 0 min 0 min 0 W/m 16,1 km/h (3 Bft) 98,97 %
11.12.2022 06:10 0,1 C -0,6 C -2,2 C 95 % 1011,6 hPa 0,0 l/m 0 min 0 min 0 W/m 6,4 km/h (2 Bft) 100,00 %
11.12.2022 06:12 0,1 C -0,6 C -2,2 C 95 % 1011,6 hPa 0,0 l/m 0 min 0 min 0 W/m 9,7 km/h (2 Bft) 97,83 %
11.12.2022 06:14 0,1 C -0,6 C -2,2 C 95 % 1011,6 hPa 0,0 l/m 0 min 0 min 0 W/m 3,2 km/h (1 Bft) 100,00 %
11.12.2022 06:16 0,1 C -0,6 C -2,2 C 95 % 1011,6 hPa 0,0 l/m 0 min 0 min 0 W/m 9,7 km/h (2 Bft) 97,87 %
11.12.2022 06:18 0,1 C -0,6 C -2,2 C 95 % 1011,6 hPa 0,0 l/m 0 min 0 min 0 W/m 6,4 km/h (2 Bft) 100,00 %
11.12.2022 06:20 0,1 C -0,6 C -2,2 C 95 % 1011,6 hPa 0,0 l/m 0 min 0 min 0 W/m 9,7 km/h (2 Bft) 95,74 %
11.12.2022 06:22 0,1 C -0,6 C -2,2 C 95 % 1011,6 hPa 0,0 l/m 0 min 0 min 0 W/m 6,4 km/h (2 Bft) 100,00 %
11.12.2022 06:24 0,1 C -0,6 C -2,2 C 95 % 1011,5 hPa 0,0 l/m 0 min 0 min 0 W/m 9,7 km/h (2 Bft) 100,00 %
11.12.2022 06:26 0,1 C -0,6 C -2,2 C 95 % 1011,5 hPa 0,0 l/m 0 min 0 min 0 W/m 3,2 km/h (1 Bft) 95,74 %
11.12.2022 06:28 0,1 C -0,6 C -2,2 C 95 % 1011,5 hPa 0,0 l/m 0 min 0 min 0 W/m 9,7 km/h (2 Bft) 95,74 %
11.12.2022 06:30 0,1 C -0,6 C -2,2 C 95 % 1011,5 hPa 0,0 l/m 0 min 0 min 0 W/m 9,7 km/h (2 Bft) 97,87 %
11.12.2022 06:32 0,1 C -0,6 C -2,2 C 95 % 1011,5 hPa 0,0 l/m 0 min 0 min 0 W/m 6,4 km/h (2 Bft) 95,74 %
11.12.2022 06:34 0,1 C -0,6 C -2,2 C 95 % 1011,5 hPa 0,0 l/m 0 min 0 min 0 W/m 3,2 km/h (1 Bft) 97,87 %
11.12.2022 06:36 0,1 C -0,6 C -2,2 C 95 % 1011,4 hPa 0,0 l/m 0 min 0 min 0 W/m 6,4 km/h (2 Bft) 97,87 %
11.12.2022 06:38 0,1 C -0,6 C -2,2 C 95 % 1011,4 hPa 0,0 l/m 0 min 0 min 0 W/m 3,2 km/h (1 Bft) 93,48 %
11.12.2022 06:40 0,1 C -0,6 C -2,2 C 95 % 1011,4 hPa 0,0 l/m 0 min 0 min 0 W/m 3,2 km/h (1 Bft) 95,74 %
11.12.2022 06:42 0,1 C -0,6 C -2,2 C 95 % 1011,3 hPa 0,0 l/m 0 min 0 min 0 W/m 6,4 km/h (2 Bft) 93,62 %
11.12.2022 06:44 0,1 C -0,6 C -2,2 C 95 % 1011,4 hPa 0,0 l/m 0 min 0 min 0 W/m 6,4 km/h (2 Bft) 95,74 %
11.12.2022 06:46 0,1 C -0,6 C -2,2 C 95 % 1011,4 hPa 0,0 l/m 0 min 0 min 0 W/m 9,7 km/h (2 Bft) 95,74 %
11.12.2022 06:48 0,1 C -0,6 C -2,2 C 95 % 1011,4 hPa 0,0 l/m 0 min 0 min 0 W/m 6,4 km/h (2 Bft) 93,62 %
11.12.2022 06:50 0,1 C -0,6 C -2,2 C 95 % 1011,3 hPa 0,0 l/m 0 min 0 min 0 W/m 12,9 km/h (3 Bft) 93,48 %
11.12.2022 06:52 0,1 C -0,6 C -2,2 C 95 % 1011,3 hPa 0,0 l/m 0 min 0 min 0 W/m 3,2 km/h (1 Bft) 91,49 %
11.12.2022 06:54 0,1 C -0,6 C -2,2 C 95 % 1011,3 hPa 0,0 l/m 0 min 0 min 0 W/m 3,2 km/h (1 Bft) 95,74 %
11.12.2022 06:56 0,1 C -0,6 C -2,2 C 95 % 1011,3 hPa 0,0 l/m 0 min 0 min 0 W/m 3,2 km/h (1 Bft) 91,49 %
11.12.2022 06:58 0,1 C -0,6 C -2,2 C 95 % 1011,3 hPa 0,0 l/m 0 min 0 min 0 W/m 6,4 km/h (2 Bft) 93,62 %
11.12.2022 07:00 0,1 C -0,6 C -2,2 C 95 % 1011,3 hPa 0,0 l/m 0 min 0 min 0 W/m 9,7 km/h (2 Bft) 93,62 %
11.12.2022 07:02 0,1 C -0,6 C -2,2 C 95 % 1011,3 hPa 0,0 l/m 0 min 0 min 0 W/m 9,7 km/h (2 Bft) 93,48 %
11.12.2022 07:04 0,1 C -0,6 C -2,2 C 95 % 1011,4 hPa 0,0 l/m 0 min 0 min 0 W/m 6,4 km/h (2 Bft) 93,62 %
11.12.2022 07:06 0,1 C -0,6 C -2,2 C 95 % 1011,3 hPa 0,0 l/m 0 min 0 min 0 W/m 3,2 km/h (1 Bft) 93,62 %
11.12.2022 07:08 0,1 C -0,6 C -2,2 C 95 % 1011,3 hPa 0,0 l/m 0 min 0 min 0 W/m 9,7 km/h (2 Bft) 93,62 %
11.12.2022 07:10 0,1 C -0,6 C -2,2 C 95 % 1011,3 hPa 0,0 l/m 0 min 0 min 0 W/m 12,9 km/h (3 Bft) 93,62 %
11.12.2022 07:12 0,1 C -0,6 C -2,2 C 95 % 1011,3 hPa 0,0 l/m 0 min 0 min 0 W/m 6,4 km/h (2 Bft) 89,36 %
11.12.2022 07:14 0,1 C -0,6 C -2,2 C 95 % 1011,3 hPa 0,0 l/m 0 min 0 min 0 W/m 3,2 km/h (1 Bft) 93,62 %
11.12.2022 07:16 0,1 C -0,6 C -2,2 C 95 % 1011,4 hPa 0,0 l/m 0 min 0 min 0 W/m 6,4 km/h (2 Bft) 93,48 %
11.12.2022 07:18 0,1 C -0,6 C -2,2 C 95 % 1011,4 hPa 0,0 l/m 0 min 0 min 0 W/m 6,4 km/h (2 Bft) 93,62 %
11.12.2022 07:20 0,1 C -0,6 C -2,2 C 95 % 1011,4 hPa 0,0 l/m 0 min 0 min 0 W/m 6,4 km/h (2 Bft) 95,74 %
11.12.2022 07:22 0,1 C -0,6 C -2,2 C 95 % 1011,4 hPa 0,0 l/m 0 min 0 min 0 W/m 3,2 km/h (1 Bft) 95,74 %
11.12.2022 07:24 0,1 C -0,6 C -2,2 C 95 % 1011,4 hPa 0,0 l/m 0 min 0 min 0 W/m 6,4 km/h (2 Bft) 95,74 %
11.12.2022 07:26 0,1 C -0,6 C -2,2 C 95 % 1011,4 hPa 0,0 l/m 0 min 0 min 0 W/m 6,4 km/h (2 Bft) 95,74 %
11.12.2022 07:28 0,1 C -0,6 C -2,2 C 95 % 1011,4 hPa 0,0 l/m 0 min 0 min 0 W/m 9,7 km/h (2 Bft) 97,83 %
11.12.2022 07:30 0,1 C -0,6 C -2,2 C 95 % 1011,3 hPa 0,0 l/m 0 min 0 min 0 W/m 3,2 km/h (1 Bft) 97,87 %
11.12.2022 07:32 0,1 C -0,6 C -2,2 C 95 % 1011,3 hPa 0,0 l/m 0 min 0 min 0 W/m 3,2 km/h (1 Bft) 97,87 %
11.12.2022 07:34 0,1 C -0,6 C -2,2 C 95 % 1011,4 hPa 0,0 l/m 0 min 0 min 0 W/m 6,4 km/h (2 Bft) 100,00 %
11.12.2022 07:36 0,1 C -0,6 C -2,2 C 95 % 1011,4 hPa 0,0 l/m 0 min 0 min 0 W/m 9,7 km/h (2 Bft) 97,87 %
11.12.2022 07:38 0,1 C -0,6 C -2,2 C 95 % 1011,3 hPa 0,0 l/m 0 min 0 min 0 W/m 9,7 km/h (2 Bft) 100,00 %
11.12.2022 07:40 0,1 C -0,6 C -2,2 C 95 % 1011,3 hPa 0,0 l/m 0 min 0 min 0 W/m 9,7 km/h (2 Bft) 97,87 %
11.12.2022 07:42 0,1 C -0,6 C -2,2 C 95 % 1011,3 hPa 0,0 l/m 0 min 0 min 0 W/m 6,4 km/h (2 Bft) 100,00 %
11.12.2022 07:44 0,1 C -0,6 C -2,2 C 95 % 1011,3 hPa 0,0 l/m 0 min 0 min 0 W/m 3,2 km/h (1 Bft) 97,87 %
11.12.2022 07:46 0,1 C -0,6 C -2,2 C 95 % 1011,3 hPa 0,0 l/m 0 min 0 min 0 W/m 3,2 km/h (1 Bft) 100,00 %
11.12.2022 07:48 0,1 C -0,6 C -2,2 C 95 % 1011,3 hPa 0,0 l/m 0 min 0 min 0 W/m 3,2 km/h (1 Bft) 97,87 %
11.12.2022 07:50 0,1 C -0,6 C -2,2 C 95 % 1011,3 hPa 0,0 l/m 0 min 0 min 0 W/m 0,0 km/h (0 Bft) 97,87 %
11.12.2022 07:52 0,1 C -0,6 C -2,2 C 95 % 1011,3 hPa 0,0 l/m 0 min 0 min 0 W/m 6,4 km/h (2 Bft) 100,00 %
11.12.2022 07:54 0,1 C -0,6 C -2,2 C 95 % 1011,3 hPa 0,0 l/m 0 min 0 min 0 W/m 6,4 km/h (2 Bft) 100,00 %
11.12.2022 07:56 0,1 C -0,6 C -2,2 C 95 % 1011,3 hPa 0,0 l/m 0 min 0 min 0 W/m 3,2 km/h (1 Bft) 100,00 %
11.12.2022 07:58 0,1 C -0,6 C -2,2 C 95 % 1011,3 hPa 0,0 l/m 0 min 0 min 0 W/m 6,4 km/h (2 Bft) 97,87 %
11.12.2022 08:00 0,1 C -0,6 C -2,2 C 95 % 1011,3 hPa 0,0 l/m 0 min 0 min 0 W/m 3,2 km/h (1 Bft) 100,00 %
11.12.2022 08:02 0,1 C -0,6 C -2,2 C 95 % 1011,3 hPa 0,0 l/m 0 min 0 min 0 W/m 6,4 km/h (2 Bft) 89,36 %
11.12.2022 08:04 0,1 C -0,6 C -2,2 C 95 % 1011,3 hPa 0,0 l/m 0 min 0 min 0 W/m 6,4 km/h (2 Bft) 65,91 %
11.12.2022 08:06 0,1 C -0,6 C -2,2 C 95 % 1011,4 hPa 0,0 l/m 0 min 0 min 0 W/m 9,7 km/h (2 Bft) 97,83 %
11.12.2022 08:08 0,1 C -0,6 C -2,2 C 95 % 1011,4 hPa 0,0 l/m 0 min 0 min 0 W/m 9,7 km/h (2 Bft) 100,00 %
11.12.2022 08:10 0,1 C -0,6 C -2,2 C 95 % 1011,4 hPa 0,0 l/m 0 min 0 min 0 W/m 3,2 km/h (1 Bft) 97,87 %
11.12.2022 08:12 0,1 C -0,6 C -2,2 C 95 % 1011,4 hPa 0,0 l/m 0 min 0 min 0 W/m 6,4 km/h (2 Bft) 100,00 %
11.12.2022 08:14 0,1 C -0,6 C -2,2 C 95 % 1011,4 hPa 0,0 l/m 0 min 0 min 0 W/m 9,7 km/h (2 Bft) 100,00 %
11.12.2022 08:16 0,1 C -0,6 C -2,2 C 95 % 1011,4 hPa 0,0 l/m 0 min 0 min 0 W/m 6,4 km/h (2 Bft) 100,00 %
11.12.2022 08:18 0,1 C -0,6 C -2,2 C 95 % 1011,4 hPa 0,0 l/m 0 min 0 min 0 W/m 9,7 km/h (2 Bft) 100,00 %
11.12.2022 08:20 0,1 C -0,6 C -2,2 C 95 % 1011,4 hPa 0,0 l/m 0 min 0 min 0 W/m 9,7 km/h (2 Bft) 100,00 %
11.12.2022 08:22 0,1 C -0,6 C -2,2 C 95 % 1011,4 hPa 0,0 l/m 0 min 0 min 0 W/m 9,7 km/h (2 Bft) 100,00 %
11.12.2022 08:24 0,1 C -0,6 C -2,2 C 95 % 1011,4 hPa 0,0 l/m 0 min 0 min 0 W/m 3,2 km/h (1 Bft) 100,00 %
11.12.2022 08:26 0,1 C -0,6 C -2,2 C 95 % 1011,4 hPa 0,0 l/m 0 min 0 min 0 W/m 6,4 km/h (2 Bft) 100,00 %
11.12.2022 08:28 0,1 C -0,6 C -2,2 C 95 % 1011,5 hPa 0,0 l/m 0 min 0 min 0 W/m 9,7 km/h (2 Bft) 100,00 %
11.12.2022 08:30 0,1 C -0,6 C -2,2 C 95 % 1011,5 hPa 0,0 l/m 0 min 0 min 0 W/m 6,4 km/h (2 Bft) 100,00 %
11.12.2022 08:32 0,1 C -0,6 C -2,2 C 95 % 1011,5 hPa 0,0 l/m 0 min 0 min 0 W/m 6,4 km/h (2 Bft) 100,00 %
11.12.2022 08:34 0,1 C -0,6 C -2,2 C 95 % 1011,5 hPa 0,0 l/m 0 min 0 min 0 W/m 9,7 km/h (2 Bft) 95,74 %
11.12.2022 08:36 0,1 C -0,6 C -2,2 C 95 % 1011,5 hPa 0,0 l/m 0 min 0 min 0 W/m 3,2 km/h (1 Bft) 100,00 %
11.12.2022 08:38 0,1 C -0,6 C -2,2 C 95 % 1011,5 hPa 0,0 l/m 0 min 0 min 0 W/m 3,2 km/h (1 Bft) 97,87 %
11.12.2022 08:40 0,1 C -0,6 C -2,2 C 95 % 1011,5 hPa 0,0 l/m 0 min 0 min 0 W/m 16,1 km/h (3 Bft) 100,00 %
11.12.2022 08:42 0,1 C 0,0 C -2,2 C 95 % 1011,5 hPa 0,0 l/m 0 min 0 min 0 W/m 9,7 km/h (2 Bft) 97,87 %
11.12.2022 08:44 0,1 C 0,0 C -2,2 C 95 % 1011,4 hPa 0,0 l/m 0 min 0 min 3 W/m 6,4 km/h (2 Bft) 95,65 %
11.12.2022 08:46 0,1 C 0,0 C -2,2 C 95 % 1011,5 hPa 0,0 l/m 0 min 0 min 5 W/m 3,2 km/h (1 Bft) 95,74 %
11.12.2022 08:48 0,1 C 0,0 C -2,2 C 95 % 1011,5 hPa 0,0 l/m 0 min 0 min 5 W/m 6,4 km/h (2 Bft) 93,62 %
11.12.2022 08:50 0,1 C 0,0 C -2,2 C 95 % 1011,4 hPa 0,0 l/m 0 min 0 min 5 W/m 6,4 km/h (2 Bft) 94,29 %
11.12.2022 08:52 0,1 C 0,0 C -2,2 C 95 % 1011,5 hPa 0,0 l/m 0 min 0 min 5 W/m 9,7 km/h (2 Bft) 96,61 %
11.12.2022 08:54 0,1 C 0,0 C -2,2 C 95 % 1011,5 hPa 0,0 l/m 0 min 0 min 5 W/m 12,9 km/h (3 Bft) 97,87 %
11.12.2022 08:56 0,1 C 0,0 C -2,2 C 95 % 1011,5 hPa 0,0 l/m 0 min 0 min 5 W/m 12,9 km/h (3 Bft) 94,29 %
11.12.2022 08:58 0,1 C 0,0 C -2,2 C 94 % 1011,5 hPa 0,0 l/m 0 min 0 min 7 W/m 6,4 km/h (2 Bft) 94,83 %
11.12.2022 09:00 0,1 C 0,0 C -2,2 C 94 % 1011,5 hPa 0,0 l/m 0 min 0 min 7 W/m 3,2 km/h (1 Bft) 100,00 %
11.12.2022 09:02 0,1 C 0,0 C -2,2 C 94 % 1011,5 hPa 0,0 l/m 0 min 0 min 7 W/m 6,4 km/h (2 Bft) 93,62 %
11.12.2022 09:04 0,1 C 0,0 C -2,2 C 94 % 1011,5 hPa 0,0 l/m 0 min 0 min 5 W/m 6,4 km/h (2 Bft) 94,92 %
11.12.2022 09:06 0,1 C 0,0 C -2,2 C 94 % 1011,5 hPa 0,0 l/m 0 min 0 min 5 W/m 16,1 km/h (3 Bft) 91,49 %
11.12.2022 09:08 0,1 C 0,0 C -2,2 C 94 % 1011,5 hPa 0,0 l/m 0 min 0 min 5 W/m 6,4 km/h (2 Bft) 95,74 %
11.12.2022 09:10 0,1 C 0,0 C -2,2 C 94 % 1011,5 hPa 0,0 l/m 0 min 0 min 5 W/m 6,4 km/h (2 Bft) 95,65 %
11.12.2022 09:12 0,1 C 0,0 C -2,2 C 94 % 1011,5 hPa 0,0 l/m 0 min 0 min 5 W/m 3,2 km/h (1 Bft) 94,44 %
11.12.2022 09:14 0,1 C 0,0 C -2,2 C 94 % 1011,5 hPa 0,0 l/m 0 min 0 min 5 W/m 0,0 km/h (0 Bft) 93,62 %
11.12.2022 09:16 0,1 C 0,0 C -2,2 C 94 % 1011,4 hPa 0,0 l/m 0 min 0 min 5 W/m 3,2 km/h (1 Bft) 95,65 %
11.12.2022 09:18 0,2 C 0,0 C -2,2 C 94 % 1011,4 hPa 0,0 l/m 0 min 0 min 5 W/m 6,4 km/h (2 Bft) 97,87 %
11.12.2022 09:20 0,2 C 0,0 C -2,2 C 94 % 1011,4 hPa 0,0 l/m 0 min 0 min 5 W/m 3,2 km/h (1 Bft) 95,74 %
11.12.2022 09:22 0,2 C 0,0 C -2,2 C 94 % 1011,4 hPa 0,0 l/m 0 min 0 min 6 W/m 6,4 km/h (2 Bft) 97,87 %
11.12.2022 09:24 0,2 C 0,0 C -2,2 C 94 % 1011,5 hPa 0,0 l/m 0 min 0 min 7 W/m 3,2 km/h (1 Bft) 97,87 %
11.12.2022 09:26 0,2 C 0,0 C -2,2 C 94 % 1011,5 hPa 0,0 l/m 0 min 0 min 8 W/m 3,2 km/h (1 Bft) 95,74 %
11.12.2022 09:28 0,2 C 0,0 C -2,2 C 94 % 1011,5 hPa 0,0 l/m 0 min 0 min 9 W/m 6,4 km/h (2 Bft) 97,87 %
11.12.2022 09:30 0,1 C 0,0 C -2,2 C 94 % 1011,5 hPa 0,0 l/m 0 min 0 min 9 W/m 3,2 km/h (1 Bft) 97,87 %
11.12.2022 09:32 0,1 C 0,0 C -2,2 C 93 % 1011,5 hPa 0,0 l/m 0 min 0 min 8 W/m 6,4 km/h (2 Bft) 95,74 %
11.12.2022 09:34 0,2 C 0,0 C -2,2 C 94 % 1011,5 hPa 0,0 l/m 0 min 0 min 7 W/m 6,4 km/h (2 Bft) 93,48 %
11.12.2022 09:36 0,1 C 0,0 C -2,2 C 93 % 1011,5 hPa 0,0 l/m 0 min 0 min 7 W/m 3,2 km/h (1 Bft) 93,62 %
11.12.2022 09:38 0,1 C 0,0 C -2,2 C 93 % 1011,5 hPa 0,0 l/m 0 min 0 min 7 W/m 3,2 km/h (1 Bft) 95,74 %
11.12.2022 09:40 0,1 C 0,0 C -2,2 C 93 % 1011,5 hPa 0,0 l/m 0 min 0 min 7 W/m 6,4 km/h (2 Bft) 93,62 %
11.12.2022 09:42 0,1 C 0,0 C -2,2 C 93 % 1011,5 hPa 0,0 l/m 0 min 0 min 5 W/m 3,2 km/h (1 Bft) 93,62 %
11.12.2022 09:44 0,2 C 0,0 C -2,2 C 93 % 1011,4 hPa 0,0 l/m 0 min 0 min 5 W/m 3,2 km/h (1 Bft) 95,74 %
11.12.2022 09:46 0,1 C 0,0 C -2,2 C 93 % 1011,5 hPa 0,0 l/m 0 min 0 min 7 W/m 3,2 km/h (1 Bft) 95,74 %
11.12.2022 09:48 0,1 C 0,0 C -2,2 C 93 % 1011,5 hPa 0,0 l/m 0 min 0 min 7 W/m 6,4 km/h (2 Bft) 97,87 %
11.12.2022 09:50 0,2 C 0,0 C -2,2 C 93 % 1011,5 hPa 0,0 l/m 0 min 0 min 11 W/m 6,4 km/h (2 Bft) 97,87 %
11.12.2022 09:52 0,2 C 0,0 C -2,2 C 93 % 1011,5 hPa 0,0 l/m 0 min 0 min 17 W/m 6,4 km/h (2 Bft) 95,65 %
11.12.2022 09:54 0,2 C 0,0 C -2,2 C 93 % 1011,4 hPa 0,0 l/m 0 min 0 min 21 W/m 0,0 km/h (0 Bft) 93,62 %
11.12.2022 09:56 0,2 C 0,0 C -2,2 C 92 % 1011,5 hPa 0,0 l/m 0 min 0 min 22 W/m 0,0 km/h (0 Bft) 97,87 %
11.12.2022 09:58 0,2 C 0,0 C -2,2 C 92 % 1011,4 hPa 0,0 l/m 0 min 0 min 23 W/m 3,2 km/h (1 Bft) 97,87 %
11.12.2022 10:00 0,2 C 0,0 C -2,2 C 92 % 1011,4 hPa 0,0 l/m 0 min 0 min 25 W/m 3,2 km/h (1 Bft) 97,87 %
11.12.2022 10:02 0,2 C 0,0 C -2,2 C 92 % 1011,5 hPa 0,0 l/m 0 min 0 min 27 W/m 3,2 km/h (1 Bft) 97,87 %
11.12.2022 10:04 0,2 C 0,0 C -2,2 C 93 % 1011,4 hPa 0,0 l/m 0 min 0 min 29 W/m 3,2 km/h (1 Bft) 95,74 %
11.12.2022 10:06 0,3 C 0,0 C -2,2 C 92 % 1011,5 hPa 0,0 l/m 0 min 0 min 31 W/m 6,4 km/h (2 Bft) 96,61 %
11.12.2022 10:08 0,3 C 0,0 C -1,7 C 92 % 1011,5 hPa 0,0 l/m 0 min 0 min 31 W/m 3,2 km/h (1 Bft) 97,14 %
11.12.2022 10:10 0,2 C 0,0 C -1,7 C 92 % 1011,4 hPa 0,0 l/m 0 min 0 min 31 W/m 3,2 km/h (1 Bft) 95,74 %
11.12.2022 10:12 0,3 C 0,0 C -1,7 C 92 % 1011,4 hPa 0,0 l/m 0 min 0 min 33 W/m 3,2 km/h (1 Bft) 97,83 %
11.12.2022 10:14 0,3 C 0,0 C -1,7 C 92 % 1011,5 hPa 0,0 l/m 0 min 0 min 32 W/m 3,2 km/h (1 Bft) 97,87 %
11.12.2022 10:16 0,3 C 0,0 C -1,7 C 92 % 1011,4 hPa 0,0 l/m 0 min 0 min 32 W/m 6,4 km/h (2 Bft) 100,00 %
11.12.2022 10:18 0,3 C 0,0 C -2,2 C 92 % 1011,4 hPa 0,0 l/m 0 min 0 min 32 W/m 3,2 km/h (1 Bft) 82,98 %
11.12.2022 10:20 0,3 C 0,0 C -2,2 C 92 % 1011,4 hPa 0,0 l/m 0 min 0 min 30 W/m 3,2 km/h (1 Bft) 67,39 %
11.12.2022 10:22 0,3 C 0,0 C -2,2 C 92 % 1011,4 hPa 0,0 l/m 0 min 0 min 28 W/m 6,4 km/h (2 Bft) 97,87 %
11.12.2022 10:24 0,3 C 0,0 C -2,2 C 92 % 1011,4 hPa 0,0 l/m 0 min 0 min 29 W/m 6,4 km/h (2 Bft) 100,00 %
11.12.2022 10:26 0,3 C 0,0 C -2,2 C 92 % 1011,5 hPa 0,0 l/m 0 min 0 min 29 W/m 6,4 km/h (2 Bft) 100,00 %
11.12.2022 10:28 0,3 C 0,0 C -2,2 C 92 % 1011,5 hPa 0,0 l/m 0 min 0 min 28 W/m 12,9 km/h (3 Bft) 95,74 %
11.12.2022 10:30 0,3 C 0,0 C -2,2 C 92 % 1011,5 hPa 0,0 l/m 0 min 0 min 28 W/m 16,1 km/h (3 Bft) 100,00 %
11.12.2022 10:32 0,3 C 0,0 C -2,2 C 92 % 1011,5 hPa 0,0 l/m 0 min 0 min 28 W/m 9,7 km/h (2 Bft) 100,00 %
11.12.2022 10:34 0,3 C 0,0 C -2,2 C 91 % 1011,5 hPa 0,0 l/m 0 min 0 min 29 W/m 12,9 km/h (3 Bft) 100,00 %
11.12.2022 10:36 0,2 C 0,0 C -2,2 C 92 % 1011,5 hPa 0,0 l/m 0 min 0 min 33 W/m 6,4 km/h (2 Bft) 95,74 %
11.12.2022 10:38 0,2 C 0,0 C -2,2 C 91 % 1011,5 hPa 0,0 l/m 0 min 0 min 33 W/m 6,4 km/h (2 Bft) 97,87 %
11.12.2022 10:40 0,2 C 0,0 C -2,2 C 91 % 1011,5 hPa 0,0 l/m 0 min 0 min 31 W/m 6,4 km/h (2 Bft) 97,87 %
11.12.2022 10:42 0,2 C 0,0 C -2,2 C 91 % 1011,5 hPa 0,0 l/m 0 min 0 min 28 W/m 6,4 km/h (2 Bft) 97,87 %
11.12.2022 10:44 0,2 C 0,0 C -2,2 C 91 % 1011,5 hPa 0,0 l/m 0 min 0 min 33 W/m 3,2 km/h (1 Bft) 95,74 %
11.12.2022 10:46 0,2 C 0,0 C -2,2 C 91 % 1011,5 hPa 0,0 l/m 0 min 0 min 40 W/m 6,4 km/h (2 Bft) 95,74 %
11.12.2022 10:48 0,2 C 0,0 C -2,2 C 91 % 1011,5 hPa 0,0 l/m 0 min 0 min 43 W/m 6,4 km/h (2 Bft) 97,87 %
11.12.2022 10:50 0,2 C 0,0 C -2,2 C 91 % 1011,4 hPa 0,0 l/m 0 min 0 min 46 W/m 12,9 km/h (3 Bft) 97,87 %
11.12.2022 10:52 0,2 C 0,0 C -2,2 C 91 % 1011,5 hPa 0,0 l/m 0 min 0 min 46 W/m 6,4 km/h (2 Bft) 93,48 %
11.12.2022 10:54 0,2 C 0,0 C -2,2 C 91 % 1011,5 hPa 0,0 l/m 0 min 0 min 42 W/m 9,7 km/h (2 Bft) 97,87 %
11.12.2022 10:56 0,2 C 0,0 C -2,2 C 91 % 1011,5 hPa 0,0 l/m 0 min 0 min 40 W/m 6,4 km/h (2 Bft) 93,62 %
11.12.2022 10:58 0,2 C 0,0 C -2,2 C 91 % 1011,4 hPa 0,0 l/m 0 min 0 min 39 W/m 3,2 km/h (1 Bft) 97,87 %
11.12.2022 11:00 0,2 C 0,0 C -2,2 C 91 % 1011,5 hPa 0,0 l/m 0 min 0 min 37 W/m 3,2 km/h (1 Bft) 95,74 %
11.12.2022 11:02 0,2 C 0,0 C -2,2 C 91 % 1011,5 hPa 0,0 l/m 0 min 0 min 37 W/m 0,0 km/h (0 Bft) 100,00 %
11.12.2022 11:04 0,2 C 0,0 C -2,2 C 91 % 1011,5 hPa 0,0 l/m 0 min 0 min 41 W/m 9,7 km/h (2 Bft) 95,74 %
11.12.2022 11:06 0,2 C 0,0 C -2,2 C 91 % 1011,5 hPa 0,0 l/m 0 min 0 min 46 W/m 6,4 km/h (2 Bft) 97,87 %
11.12.2022 11:08 0,2 C 0,0 C -2,2 C 91 % 1011,4 hPa 0,0 l/m 0 min 0 min 51 W/m 12,9 km/h (3 Bft) 95,74 %
11.12.2022 11:10 0,2 C 0,0 C -2,2 C 91 % 1011,4 hPa 0,0 l/m 0 min 0 min 59 W/m 3,2 km/h (1 Bft) 97,87 %
11.12.2022 11:12 0,2 C 0,0 C -2,2 C 91 % 1011,4 hPa 0,0 l/m 0 min 0 min 62 W/m 6,4 km/h (2 Bft) 100,00 %
11.12.2022 11:14 0,2 C 0,0 C -1,7 C 91 % 1011,4 hPa 0,0 l/m 0 min 0 min 64 W/m 6,4 km/h (2 Bft) 100,00 %
11.12.2022 11:16 0,2 C 0,0 C -1,7 C 91 % 1011,4 hPa 0,0 l/m 0 min 0 min 59 W/m 6,4 km/h (2 Bft) 97,87 %
11.12.2022 11:18 0,3 C 0,0 C -2,2 C 91 % 1011,4 hPa 0,0 l/m 0 min 0 min 49 W/m 6,4 km/h (2 Bft) 100,00 %
11.12.2022 11:20 0,2 C 0,0 C -2,2 C 91 % 1011,4 hPa 0,0 l/m 0 min 0 min 46 W/m 3,2 km/h (1 Bft) 100,00 %
11.12.2022 11:22 0,2 C 0,0 C -2,2 C 91 % 1011,4 hPa 0,0 l/m 0 min 0 min 47 W/m 6,4 km/h (2 Bft) 97,87 %
11.12.2022 11:24 0,2 C 0,0 C -2,2 C 91 % 1011,4 hPa 0,0 l/m 0 min 0 min 50 W/m 16,1 km/h (3 Bft) 97,87 %
11.12.2022 11:26 0,2 C 0,0 C -2,2 C 91 % 1011,4 hPa 0,0 l/m 0 min 0 min 55 W/m 12,9 km/h (3 Bft) 100,00 %
11.12.2022 11:28 0,2 C 0,0 C -2,2 C 91 % 1011,4 hPa 0,0 l/m 0 min 0 min 56 W/m 19,3 km/h (3 Bft) 100,00 %
11.12.2022 11:30 0,2 C 0,0 C -2,2 C 90 % 1011,4 hPa 0,0 l/m 0 min 0 min 51 W/m 9,7 km/h (2 Bft) 97,87 %
11.12.2022 11:32 0,2 C 0,0 C -2,2 C 90 % 1011,4 hPa 0,0 l/m 0 min 0 min 49 W/m 9,7 km/h (2 Bft) 97,87 %
11.12.2022 11:34 0,2 C 0,0 C -2,2 C 90 % 1011,5 hPa 0,0 l/m 0 min 0 min 49 W/m 6,4 km/h (2 Bft) 95,74 %
11.12.2022 11:36 0,2 C 0,0 C -2,2 C 90 % 1011,5 hPa 0,0 l/m 0 min 0 min 47 W/m 16,1 km/h (3 Bft) 95,65 %
11.12.2022 11:38 0,2 C 0,0 C -2,2 C 90 % 1011,4 hPa 0,0 l/m 0 min 0 min 49 W/m 16,1 km/h (3 Bft) 100,00 %
11.12.2022 11:40 0,2 C 0,0 C -2,2 C 90 % 1011,4 hPa 0,0 l/m 0 min 0 min 50 W/m 12,9 km/h (3 Bft) 100,00 %
11.12.2022 11:42 0,2 C 0,0 C -2,2 C 90 % 1011,4 hPa 0,0 l/m 0 min 0 min 53 W/m 6,4 km/h (2 Bft) 97,87 %
11.12.2022 11:44 0,2 C 0,0 C -2,2 C 90 % 1011,4 hPa 0,0 l/m 0 min 0 min 53 W/m 9,7 km/h (2 Bft) 97,87 %
11.12.2022 11:46 0,2 C 0,0 C -2,2 C 90 % 1011,3 hPa 0,0 l/m 0 min 0 min 59 W/m 6,4 km/h (2 Bft) 95,74 %
11.12.2022 11:48 0,2 C 0,0 C -2,2 C 90 % 1011,3 hPa 0,0 l/m 0 min 0 min 67 W/m 6,4 km/h (2 Bft) 97,87 %
11.12.2022 11:50 0,2 C 0,0 C -2,2 C 90 % 1011,3 hPa 0,0 l/m 0 min 0 min 83 W/m 3,2 km/h (1 Bft) 97,87 %
11.12.2022 11:52 0,2 C 0,6 C -1,7 C 90 % 1011,2 hPa 0,0 l/m 0 min 0 min 91 W/m 6,4 km/h (2 Bft) 54,55 %
11.12.2022 11:54 0,3 C 0,6 C -1,7 C 90 % 1011,2 hPa 0,0 l/m 0 min 0 min 92 W/m 6,4 km/h (2 Bft) 95,92 %
11.12.2022 11:56 0,3 C 0,6 C -1,7 C 91 % 1011,1 hPa 0,0 l/m 0 min 0 min 94 W/m 3,2 km/h (1 Bft) 95,74 %
11.12.2022 11:58 0,3 C 0,6 C -1,7 C 90 % 1011,1 hPa 0,0 l/m 0 min 0 min 99 W/m 3,2 km/h (1 Bft) 97,87 %
11.12.2022 12:00 0,3 C 0,6 C -1,7 C 90 % 1011,0 hPa 0,0 l/m 0 min 0 min 95 W/m 6,4 km/h (2 Bft) 97,87 %
11.12.2022 12:02 0,3 C 0,6 C -1,7 C 91 % 1011,0 hPa 0,0 l/m 0 min 0 min 95 W/m 6,4 km/h (2 Bft) 97,87 %
11.12.2022 12:04 0,3 C 0,6 C -1,7 C 91 % 1011,0 hPa 0,0 l/m 0 min 0 min 88 W/m 6,4 km/h (2 Bft) 97,87 %
11.12.2022 12:08 0,4 C 0,6 C -1,7 C 90 % 1011,0 hPa 0,0 l/m 0 min 0 min 76 W/m 6,4 km/h (2 Bft) 97,87 %
11.12.2022 12:10 0,4 C 0,6 C -1,7 C 90 % 1010,9 hPa 0,0 l/m 0 min 0 min 68 W/m 3,2 km/h (1 Bft) 95,74 %
11.12.2022 12:12 0,4 C 0,6 C -1,7 C 90 % 1010,9 hPa 0,0 l/m 0 min 0 min 68 W/m 12,9 km/h (3 Bft) 95,74 %
11.12.2022 12:14 0,4 C 0,6 C -1,7 C 90 % 1010,9 hPa 0,0 l/m 0 min 0 min 63 W/m 6,4 km/h (2 Bft) 93,62 %
11.12.2022 12:16 0,4 C 0,6 C -1,7 C 90 % 1010,9 hPa 0,0 l/m 0 min 0 min 56 W/m 6,4 km/h (2 Bft) 95,65 %
11.12.2022 12:18 0,4 C 0,6 C -1,7 C 90 % 1011,0 hPa 0,0 l/m 0 min 0 min 53 W/m 12,9 km/h (3 Bft) 95,74 %
11.12.2022 12:20 0,4 C 0,6 C -1,7 C 90 % 1011,0 hPa 0,0 l/m 0 min 0 min 54 W/m 3,2 km/h (1 Bft) 95,74 %
11.12.2022 12:22 0,4 C 0,6 C -1,7 C 90 % 1011,0 hPa 0,0 l/m 0 min 0 min 57 W/m 6,4 km/h (2 Bft) 97,87 %
11.12.2022 12:24 0,4 C 0,0 C -1,7 C 90 % 1011,0 hPa 0,0 l/m 0 min 0 min 54 W/m 6,4 km/h (2 Bft) 93,62 %
11.12.2022 12:26 0,4 C 0,0 C -2,2 C 90 % 1010,9 hPa 0,0 l/m 0 min 0 min 52 W/m 16,1 km/h (3 Bft) 97,87 %
11.12.2022 12:28 0,3 C 0,0 C -2,2 C 90 % 1010,9 hPa 0,0 l/m 0 min 0 min 52 W/m 16,1 km/h (3 Bft) 93,62 %
11.12.2022 12:30 0,3 C 0,0 C -2,2 C 90 % 1010,9 hPa 0,0 l/m 0 min 0 min 46 W/m 12,9 km/h (3 Bft) 93,62 %
11.12.2022 12:32 0,3 C 0,0 C -2,2 C 90 % 1010,9 hPa 0,0 l/m 0 min 0 min 41 W/m 6,4 km/h (2 Bft) 95,74 %
11.12.2022 12:34 0,3 C 0,0 C -2,2 C 90 % 1010,8 hPa 0,0 l/m 0 min 0 min 51 W/m 6,4 km/h (2 Bft) 95,65 %
11.12.2022 12:36 0,3 C 0,0 C -2,2 C 90 % 1010,8 hPa 0,0 l/m 0 min 0 min 40 W/m 9,7 km/h (2 Bft) 89,36 %
11.12.2022 12:38 0,3 C 0,0 C -2,2 C 90 % 1010,9 hPa 0,0 l/m 0 min 0 min 30 W/m 6,4 km/h (2 Bft) 95,74 %
11.12.2022 12:40 0,3 C 0,0 C -2,2 C 90 % 1010,9 hPa 0,0 l/m 0 min 0 min 37 W/m 9,7 km/h (2 Bft) 97,87 %
11.12.2022 12:42 0,3 C 0,0 C -2,2 C 90 % 1010,9 hPa 0,0 l/m 0 min 0 min 46 W/m 9,7 km/h (2 Bft) 93,62 %
11.12.2022 12:44 0,2 C 0,0 C -2,2 C 90 % 1010,8 hPa 0,0 l/m 0 min 0 min 44 W/m 12,9 km/h (3 Bft) 95,74 %
11.12.2022 12:46 0,2 C 0,0 C -2,2 C 89 % 1010,8 hPa 0,0 l/m 0 min 0 min 42 W/m 12,9 km/h (3 Bft) 97,83 %
11.12.2022 12:48 0,2 C 0,0 C -2,2 C 89 % 1010,8 hPa 0,0 l/m 0 min 0 min 55 W/m 12,9 km/h (3 Bft) 93,62 %
11.12.2022 12:50 0,2 C 0,0 C -2,2 C 89 % 1010,7 hPa 0,0 l/m 0 min 0 min 65 W/m 6,4 km/h (2 Bft) 95,74 %
11.12.2022 12:52 0,3 C 0,6 C -2,2 C 90 % 1010,7 hPa 0,0 l/m 0 min 0 min 69 W/m 6,4 km/h (2 Bft) 93,62 %
11.12.2022 12:54 0,3 C 0,6 C -1,7 C 90 % 1010,7 hPa 0,0 l/m 0 min 0 min 70 W/m 6,4 km/h (2 Bft) 95,74 %
11.12.2022 12:56 0,3 C 0,6 C -1,7 C 90 % 1010,7 hPa 0,0 l/m 0 min 0 min 69 W/m 6,4 km/h (2 Bft) 93,62 %
11.12.2022 12:58 0,3 C 0,6 C -1,7 C 90 % 1010,7 hPa 0,0 l/m 0 min 0 min 62 W/m 6,4 km/h (2 Bft) 95,74 %
11.12.2022 13:00 0,3 C 0,6 C -1,7 C 90 % 1010,7 hPa 0,0 l/m 0 min 0 min 61 W/m 3,2 km/h (1 Bft) 93,48 %
11.12.2022 13:02 0,3 C 0,6 C -1,7 C 90 % 1010,7 hPa 0,0 l/m 0 min 0 min 56 W/m 3,2 km/h (1 Bft) 97,87 %
11.12.2022 13:04 0,4 C 0,6 C -1,7 C 89 % 1010,7 hPa 0,0 l/m 0 min 0 min 52 W/m 3,2 km/h (1 Bft) 93,62 %
11.12.2022 13:06 0,4 C 0,6 C -1,7 C 89 % 1010,6 hPa 0,0 l/m 0 min 0 min 46 W/m 3,2 km/h (1 Bft) 97,87 %
11.12.2022 13:08 0,4 C 0,6 C -1,7 C 90 % 1010,6 hPa 0,0 l/m 0 min 0 min 53 W/m 6,4 km/h (2 Bft) 97,87 %
11.12.2022 13:10 0,4 C 0,6 C -2,2 C 90 % 1010,6 hPa 0,0 l/m 0 min 0 min 58 W/m 6,4 km/h (2 Bft) 95,74 %
11.12.2022 13:12 0,4 C 0,6 C -1,7 C 90 % 1010,6 hPa 0,0 l/m 0 min 0 min 67 W/m 3,2 km/h (1 Bft) 95,65 %
11.12.2022 13:14 0,4 C 0,6 C -1,7 C 90 % 1010,6 hPa 0,0 l/m 0 min 0 min 66 W/m 3,2 km/h (1 Bft) 97,87 %
11.12.2022 13:16 0,4 C 0,6 C -1,7 C 90 % 1010,6 hPa 0,0 l/m 0 min 0 min 54 W/m 3,2 km/h (1 Bft) 95,74 %
11.12.2022 13:18 0,4 C 0,6 C -1,7 C 90 % 1010,5 hPa 0,0 l/m 0 min 0 min 55 W/m 3,2 km/h (1 Bft) 97,87 %
11.12.2022 13:20 0,4 C 0,6 C -1,7 C 89 % 1010,6 hPa 0,0 l/m 0 min 0 min 58 W/m 0,0 km/h (0 Bft) 97,87 %
11.12.2022 13:22 0,5 C 0,6 C -1,7 C 89 % 1010,5 hPa 0,0 l/m 0 min 0 min 42 W/m 0,0 km/h (0 Bft) 100,00 %
11.12.2022 13:24 0,5 C 0,6 C -2,2 C 89 % 1010,5 hPa 0,0 l/m 0 min 0 min 27 W/m 3,2 km/h (1 Bft) 100,00 %
11.12.2022 13:26 0,5 C 0,6 C -2,2 C 89 % 1010,6 hPa 0,0 l/m 0 min 0 min 28 W/m 3,2 km/h (1 Bft) 95,65 %
11.12.2022 13:28 0,5 C 0,6 C -2,2 C 89 % 1010,5 hPa 0,0 l/m 0 min 0 min 33 W/m 3,2 km/h (1 Bft) 100,00 %
11.12.2022 13:30 0,6 C 0,6 C -2,2 C 89 % 1010,5 hPa 0,0 l/m 0 min 0 min 38 W/m 3,2 km/h (1 Bft) 100,00 %
11.12.2022 13:32 0,6 C 0,6 C -2,2 C 89 % 1010,5 hPa 0,0 l/m 0 min 0 min 37 W/m 0,0 km/h (0 Bft) 97,87 %
11.12.2022 13:34 0,6 C 0,6 C -1,7 C 89 % 1010,5 hPa 0,0 l/m 0 min 0 min 40 W/m 3,2 km/h (1 Bft) 97,87 %
11.12.2022 13:36 0,6 C 0,6 C -1,7 C 89 % 1010,5 hPa 0,0 l/m 0 min 0 min 44 W/m 3,2 km/h (1 Bft) 97,87 %
11.12.2022 13:38 0,6 C 0,6 C -1,7 C 89 % 1010,5 hPa 0,0 l/m 0 min 0 min 48 W/m 0,0 km/h (0 Bft) 100,00 %
11.12.2022 13:40 0,6 C 0,6 C -1,7 C 89 % 1010,4 hPa 0,0 l/m 0 min 0 min 56 W/m 3,2 km/h (1 Bft) 100,00 %
11.12.2022 13:42 0,6 C 0,6 C -1,7 C 89 % 1010,4 hPa 0,0 l/m 0 min 0 min 54 W/m 0,0 km/h (0 Bft) 93,62 %
11.12.2022 13:44 0,6 C 0,6 C -1,7 C 89 % 1010,4 hPa 0,0 l/m 0 min 0 min 52 W/m 0,0 km/h (0 Bft) 100,00 %
11.12.2022 13:46 0,6 C 0,6 C -1,7 C 89 % 1010,4 hPa 0,0 l/m 0 min 0 min 57 W/m 0,0 km/h (0 Bft) 100,00 %
11.12.2022 13:48 0,6 C 0,6 C -1,7 C 89 % 1010,4 hPa 0,0 l/m 0 min 0 min 56 W/m 0,0 km/h (0 Bft) 100,00 %
11.12.2022 13:50 0,6 C 0,6 C -1,7 C 89 % 1010,4 hPa 0,0 l/m 0 min 0 min 53 W/m 3,2 km/h (1 Bft) 100,00 %
11.12.2022 13:52 0,6 C 0,6 C -1,7 C 89 % 1010,4 hPa 0,0 l/m 0 min 0 min 36 W/m 0,0 km/h (0 Bft) 97,83 %
11.12.2022 13:54 0,6 C 0,6 C -1,7 C 89 % 1010,5 hPa 0,0 l/m 0 min 0 min 22 W/m 3,2 km/h (1 Bft) 100,00 %
11.12.2022 13:56 0,6 C 0,6 C -1,7 C 89 % 1010,5 hPa 0,0 l/m 0 min 0 min 25 W/m 6,4 km/h (2 Bft) 97,87 %
11.12.2022 13:58 0,6 C 0,6 C -1,7 C 89 % 1010,5 hPa 0,0 l/m 0 min 0 min 35 W/m 6,4 km/h (2 Bft) 100,00 %
11.12.2022 14:00 0,6 C 0,6 C -1,7 C 89 % 1010,5 hPa 0,0 l/m 0 min 0 min 51 W/m 3,2 km/h (1 Bft) 100,00 %
11.12.2022 14:02 0,6 C 0,6 C -1,7 C 89 % 1010,5 hPa 0,0 l/m 0 min 0 min 66 W/m 3,2 km/h (1 Bft) 100,00 %
11.12.2022 14:04 0,6 C 0,6 C -1,7 C 89 % 1010,4 hPa 0,0 l/m 0 min 0 min 65 W/m 9,7 km/h (2 Bft) 100,00 %
11.12.2022 14:06 0,6 C 0,6 C -1,7 C 89 % 1010,4 hPa 0,0 l/m 0 min 0 min 59 W/m 3,2 km/h (1 Bft) 100,00 %
11.12.2022 14:08 0,6 C 0,6 C -1,7 C 89 % 1010,4 hPa 0,0 l/m 0 min 0 min 56 W/m 6,4 km/h (2 Bft) 100,00 %
11.12.2022 14:10 0,6 C 0,6 C -1,7 C 89 % 1010,4 hPa 0,0 l/m 0 min 0 min 55 W/m 0,0 km/h (0 Bft) 97,87 %
11.12.2022 14:12 0,6 C 0,6 C -1,7 C 89 % 1010,4 hPa 0,0 l/m 0 min 0 min 55 W/m 3,2 km/h (1 Bft) 100,00 %
11.12.2022 14:14 0,6 C 0,6 C -1,7 C 89 % 1010,4 hPa 0,0 l/m 0 min 0 min 50 W/m 3,2 km/h (1 Bft) 97,87 %
11.12.2022 14:16 0,6 C 0,6 C -1,7 C 89 % 1010,4 hPa 0,0 l/m 0 min 0 min 51 W/m 0,0 km/h (0 Bft) 100,00 %
11.12.2022 14:18 0,6 C 0,6 C -1,7 C 88 % 1010,4 hPa 0,0 l/m 0 min 0 min 53 W/m 0,0 km/h (0 Bft) 97,87 %
11.12.2022 14:20 0,6 C 0,6 C -1,7 C 88 % 1010,4 hPa 0,0 l/m 0 min 0 min 49 W/m 0,0 km/h (0 Bft) 97,87 %
11.12.2022 14:22 0,7 C 0,6 C -1,7 C 88 % 1010,3 hPa 0,0 l/m 0 min 0 min 45 W/m 0,0 km/h (0 Bft) 97,87 %
11.12.2022 14:24 0,7 C 0,6 C -1,7 C 88 % 1010,3 hPa 0,0 l/m 0 min 0 min 42 W/m 0,0 km/h (0 Bft) 100,00 %
11.12.2022 14:26 0,7 C 0,6 C -1,7 C 88 % 1010,4 hPa 0,0 l/m 0 min 0 min 45 W/m 6,4 km/h (2 Bft) 97,87 %
11.12.2022 14:28 0,7 C 0,6 C -1,7 C 88 % 1010,3 hPa 0,0 l/m 0 min 0 min 47 W/m 6,4 km/h (2 Bft) 97,87 %
11.12.2022 14:30 0,8 C 0,6 C -1,7 C 88 % 1010,3 hPa 0,0 l/m 0 min 0 min 47 W/m 3,2 km/h (1 Bft) 97,83 %
11.12.2022 14:32 0,8 C 0,6 C -1,7 C 88 % 1010,4 hPa 0,0 l/m 0 min 0 min 47 W/m 12,9 km/h (3 Bft) 93,62 %
11.12.2022 14:34 0,8 C 0,6 C -1,7 C 88 % 1010,4 hPa 0,0 l/m 0 min 0 min 46 W/m 3,2 km/h (1 Bft) 95,74 %
11.12.2022 14:36 0,7 C 0,6 C -1,7 C 88 % 1010,4 hPa 0,0 l/m 0 min 0 min 39 W/m 3,2 km/h (1 Bft) 95,74 %
11.12.2022 14:38 0,7 C 0,6 C -1,7 C 88 % 1010,4 hPa 0,0 l/m 0 min 0 min 32 W/m 6,4 km/h (2 Bft) 93,62 %
11.12.2022 14:40 0,8 C 0,6 C -1,7 C 88 % 1010,4 hPa 0,0 l/m 0 min 0 min 29 W/m 3,2 km/h (1 Bft) 95,74 %
11.12.2022 14:42 0,8 C 0,6 C -1,7 C 88 % 1010,4 hPa 0,0 l/m 0 min 0 min 28 W/m 3,2 km/h (1 Bft) 95,65 %
11.12.2022 14:44 0,8 C 0,6 C -1,7 C 88 % 1010,4 hPa 0,0 l/m 0 min 0 min 29 W/m 6,4 km/h (2 Bft) 95,74 %
11.12.2022 14:46 0,8 C 0,6 C -1,7 C 88 % 1010,4 hPa 0,0 l/m 0 min 0 min 32 W/m 3,2 km/h (1 Bft) 95,74 %
11.12.2022 14:48 0,8 C 0,6 C -1,7 C 88 % 1010,4 hPa 0,0 l/m 0 min 0 min 32 W/m 6,4 km/h (2 Bft) 95,74 %
11.12.2022 14:50 0,8 C 0,6 C -1,7 C 88 % 1010,4 hPa 0,0 l/m 0 min 0 min 28 W/m 3,2 km/h (1 Bft) 93,62 %
11.12.2022 14:52 0,8 C 0,6 C -1,7 C 88 % 1010,4 hPa 0,0 l/m 0 min 0 min 28 W/m 3,2 km/h (1 Bft) 95,74 %
11.12.2022 14:54 0,8 C 0,6 C -1,7 C 88 % 1010,5 hPa 0,0 l/m 0 min 0 min 30 W/m 3,2 km/h (1 Bft) 95,65 %
11.12.2022 14:56 0,8 C 0,6 C -1,7 C 88 % 1010,5 hPa 0,0 l/m 0 min 0 min 28 W/m 3,2 km/h (1 Bft) 95,74 %
11.12.2022 14:58 0,8 C 0,6 C -1,7 C 88 % 1010,5 hPa 0,0 l/m 0 min 0 min 26 W/m 3,2 km/h (1 Bft) 95,74 %
11.12.2022 15:00 0,8 C 0,6 C -1,7 C 88 % 1010,5 hPa 0,0 l/m 0 min 0 min 26 W/m 3,2 km/h (1 Bft) 95,74 %
11.12.2022 15:02 0,8 C 0,6 C -1,7 C 88 % 1010,5 hPa 0,0 l/m 0 min 0 min 23 W/m 0,0 km/h (0 Bft) 97,87 %
11.12.2022 15:04 0,8 C 0,6 C -2,2 C 88 % 1010,5 hPa 0,0 l/m 0 min 0 min 21 W/m 0,0 km/h (0 Bft) 95,74 %
11.12.2022 15:06 0,8 C 0,6 C -2,2 C 88 % 1010,5 hPa 0,0 l/m 0 min 0 min 21 W/m 0,0 km/h (0 Bft) 97,87 %
11.12.2022 15:08 0,8 C 0,6 C -2,2 C 89 % 1010,5 hPa 0,0 l/m 0 min 0 min 20 W/m 0,0 km/h (0 Bft) 97,83 %
11.12.2022 15:10 0,8 C 0,6 C -2,2 C 89 % 1010,5 hPa 0,0 l/m 0 min 0 min 19 W/m 0,0 km/h (0 Bft) 97,87 %
11.12.2022 15:12 0,8 C 0,6 C -1,7 C 89 % 1010,5 hPa 0,0 l/m 0 min 0 min 19 W/m 0,0 km/h (0 Bft) 93,62 %
11.12.2022 15:14 0,8 C 0,6 C -1,7 C 88 % 1010,5 hPa 0,0 l/m 0 min 0 min 19 W/m 6,4 km/h (2 Bft) 95,74 %
11.12.2022 15:16 0,8 C 0,6 C -2,2 C 88 % 1010,6 hPa 0,0 l/m 0 min 0 min 18 W/m 3,2 km/h (1 Bft) 100,00 %
11.12.2022 15:18 0,8 C 0,6 C -2,2 C 88 % 1010,6 hPa 0,0 l/m 0 min 0 min 18 W/m 0,0 km/h (0 Bft) 97,87 %
11.12.2022 15:20 0,8 C 0,6 C -2,2 C 88 % 1010,6 hPa 0,0 l/m 0 min 0 min 18 W/m 0,0 km/h (0 Bft) 100,00 %
11.12.2022 15:22 0,8 C 0,0 C -2,2 C 88 % 1010,7 hPa 0,0 l/m 0 min 0 min 18 W/m 3,2 km/h (1 Bft) 97,87 %
11.12.2022 15:24 0,7 C 0,0 C -2,2 C 88 % 1010,6 hPa 0,0 l/m 0 min 0 min 18 W/m 3,2 km/h (1 Bft) 97,87 %
11.12.2022 15:26 0,7 C 0,0 C -2,2 C 88 % 1010,6 hPa 0,0 l/m 0 min 0 min 18 W/m 3,2 km/h (1 Bft) 93,62 %
11.12.2022 15:28 0,7 C 0,6 C -2,2 C 89 % 1010,6 hPa 0,0 l/m 0 min 0 min 18 W/m 3,2 km/h (1 Bft) 95,74 %
11.12.2022 15:30 0,7 C 0,6 C -2,2 C 89 % 1010,6 hPa 0,0 l/m 0 min 0 min 18 W/m 3,2 km/h (1 Bft) 95,74 %
11.12.2022 15:32 0,7 C 0,6 C -2,2 C 89 % 1010,6 hPa 0,0 l/m 0 min 0 min 16 W/m 3,2 km/h (1 Bft) 97,83 %
11.12.2022 15:34 0,7 C 0,6 C -2,2 C 89 % 1010,6 hPa 0,0 l/m 0 min 0 min 16 W/m 3,2 km/h (1 Bft) 95,74 %
11.12.2022 15:36 0,7 C 0,6 C -2,2 C 89 % 1010,6 hPa 0,0 l/m 0 min 0 min 14 W/m 3,2 km/h (1 Bft) 93,62 %
11.12.2022 15:38 0,7 C 0,6 C -2,2 C 89 % 1010,7 hPa 0,0 l/m 0 min 0 min 12 W/m 3,2 km/h (1 Bft) 97,87 %
11.12.2022 15:40 0,7 C 0,0 C -2,2 C 89 % 1010,7 hPa 0,0 l/m 0 min 0 min 12 W/m 3,2 km/h (1 Bft) 97,87 %
11.12.2022 15:42 0,7 C 0,0 C -2,2 C 89 % 1010,6 hPa 0,0 l/m 0 min 0 min 12 W/m 3,2 km/h (1 Bft) 97,87 %
11.12.2022 15:44 0,7 C 0,0 C -2,2 C 89 % 1010,7 hPa 0,0 l/m 0 min 0 min 11 W/m 6,4 km/h (2 Bft) 97,62 %
11.12.2022 15:46 0,7 C 0,0 C -2,2 C 89 % 1010,7 hPa 0,0 l/m 0 min 0 min 11 W/m 3,2 km/h (1 Bft) 93,48 %
11.12.2022 15:48 0,7 C 0,0 C -2,2 C 89 % 1010,7 hPa 0,0 l/m 0 min 0 min 9 W/m 3,2 km/h (1 Bft) 97,87 %
11.12.2022 15:50 0,7 C 0,0 C -2,2 C 89 % 1010,7 hPa 0,0 l/m 0 min 0 min 8 W/m 3,2 km/h (1 Bft) 95,74 %
11.12.2022 15:52 0,6 C 0,0 C -2,2 C 89 % 1010,8 hPa 0,0 l/m 0 min 0 min 7 W/m 6,4 km/h (2 Bft) 95,74 %
11.12.2022 15:54 0,6 C 0,0 C -2,2 C 89 % 1010,8 hPa 0,0 l/m 0 min 0 min 7 W/m 3,2 km/h (1 Bft) 95,74 %
11.12.2022 15:56 0,6 C 0,0 C -2,2 C 89 % 1010,8 hPa 0,0 l/m 0 min 0 min 7 W/m 9,7 km/h (2 Bft) 93,62 %
11.12.2022 15:58 0,6 C 0,0 C -2,2 C 89 % 1010,8 hPa 0,0 l/m 0 min 0 min 7 W/m 6,4 km/h (2 Bft) 97,83 %
11.12.2022 16:00 0,6 C 0,0 C -2,2 C 88 % 1010,8 hPa 0,0 l/m 0 min 0 min 6 W/m 6,4 km/h (2 Bft) 95,74 %
11.12.2022 16:02 0,6 C 0,0 C -2,2 C 88 % 1010,8 hPa 0,0 l/m 0 min 0 min 5 W/m 6,4 km/h (2 Bft) 97,87 %
11.12.2022 16:04 0,6 C 0,0 C -2,2 C 88 % 1010,8 hPa 0,0 l/m 0 min 0 min 4 W/m 3,2 km/h (1 Bft) 97,87 %
11.12.2022 16:06 0,5 C 0,0 C -2,2 C 89 % 1010,8 hPa 0,0 l/m 0 min 0 min 2 W/m 6,4 km/h (2 Bft) 93,22 %
11.12.2022 16:08 0,5 C 0,0 C -2,2 C 88 % 1010,8 hPa 0,0 l/m 0 min 0 min 5 W/m 6,4 km/h (2 Bft) 94,29 %
11.12.2022 16:10 0,5 C 0,0 C -2,2 C 88 % 1010,8 hPa 0,0 l/m 0 min 0 min 2 W/m 3,2 km/h (1 Bft) 97,87 %
11.12.2022 16:12 0,4 C 0,0 C -2,2 C 88 % 1010,8 hPa 0,0 l/m 0 min 0 min 0 W/m 6,4 km/h (2 Bft) 93,48 %
11.12.2022 16:14 0,4 C 0,0 C -2,2 C 88 % 1010,9 hPa 0,0 l/m 0 min 0 min 0 W/m 6,4 km/h (2 Bft) 100,00 %
11.12.2022 16:16 0,4 C 0,0 C -2,2 C 88 % 1010,8 hPa 0,0 l/m 0 min 0 min 0 W/m 6,4 km/h (2 Bft) 95,74 %
11.12.2022 16:18 0,4 C 0,0 C -2,2 C 88 % 1010,8 hPa 0,0 l/m 0 min 0 min 0 W/m 0,0 km/h (0 Bft) 97,87 %
11.12.2022 16:20 0,4 C 0,0 C -2,2 C 89 % 1010,8 hPa 0,0 l/m 0 min 0 min 0 W/m 6,4 km/h (2 Bft) 100,00 %
11.12.2022 16:22 0,4 C 0,0 C -2,2 C 89 % 1010,8 hPa 0,0 l/m 0 min 0 min 0 W/m 6,4 km/h (2 Bft) 93,62 %
11.12.2022 16:24 0,4 C 0,0 C -2,2 C 89 % 1010,8 hPa 0,0 l/m 0 min 0 min 0 W/m 6,4 km/h (2 Bft) 95,65 %
11.12.2022 16:26 0,4 C 0,0 C -2,2 C 89 % 1010,9 hPa 0,0 l/m 0 min 0 min 0 W/m 3,2 km/h (1 Bft) 95,74 %
11.12.2022 16:28 0,4 C 0,0 C -2,2 C 88 % 1010,8 hPa 0,0 l/m 0 min 0 min 0 W/m 6,4 km/h (2 Bft) 97,87 %
11.12.2022 16:30 0,4 C 0,0 C -2,2 C 88 % 1010,8 hPa 0,0 l/m 0 min 0 min 0 W/m 3,2 km/h (1 Bft) 95,74 %
11.12.2022 16:32 0,4 C 0,0 C -2,2 C 88 % 1010,8 hPa 0,0 l/m 0 min 0 min 0 W/m 3,2 km/h (1 Bft) 95,74 %
11.12.2022 16:34 0,4 C 0,0 C -2,2 C 88 % 1010,8 hPa 0,0 l/m 0 min 0 min 0 W/m 6,4 km/h (2 Bft) 97,87 %
11.12.2022 16:36 0,4 C 0,0 C -2,8 C 88 % 1010,8 hPa 0,0 l/m 0 min 0 min 0 W/m 6,4 km/h (2 Bft) 93,62 %
11.12.2022 16:38 0,4 C 0,0 C -2,8 C 88 % 1010,8 hPa 0,0 l/m 0 min 0 min 0 W/m 6,4 km/h (2 Bft) 76,09 %
11.12.2022 16:40 0,3 C 0,0 C -2,8 C 88 % 1010,9 hPa 0,0 l/m 0 min 0 min 0 W/m 3,2 km/h (1 Bft) 74,47 %
11.12.2022 16:42 0,3 C 0,0 C -2,8 C 89 % 1010,9 hPa 0,0 l/m 0 min 0 min 0 W/m 3,2 km/h (1 Bft) 93,62 %
11.12.2022 16:44 0,3 C 0,0 C -2,8 C 89 % 1010,8 hPa 0,0 l/m 0 min 0 min 0 W/m 3,2 km/h (1 Bft) 97,87 %
11.12.2022 16:46 0,3 C 0,0 C -2,8 C 89 % 1010,8 hPa 0,0 l/m 0 min 0 min 0 W/m 3,2 km/h (1 Bft) 93,62 %
11.12.2022 16:48 0,3 C 0,0 C -2,8 C 89 % 1010,8 hPa 0,0 l/m 0 min 0 min 0 W/m 6,4 km/h (2 Bft) 95,74 %
11.12.2022 16:50 0,3 C 0,0 C -2,8 C 89 % 1010,8 hPa 0,0 l/m 0 min 0 min 0 W/m 0,0 km/h (0 Bft) 97,83 %
11.12.2022 16:52 0,3 C 0,0 C -2,8 C 89 % 1010,8 hPa 0,0 l/m 0 min 0 min 0 W/m 3,2 km/h (1 Bft) 100,00 %
11.12.2022 16:54 0,3 C 0,0 C -2,8 C 89 % 1010,8 hPa 0,0 l/m 0 min 0 min 0 W/m 6,4 km/h (2 Bft) 97,87 %
11.12.2022 16:56 0,3 C 0,0 C -2,8 C 89 % 1010,8 hPa 0,0 l/m 0 min 0 min 0 W/m 3,2 km/h (1 Bft) 100,00 %
11.12.2022 16:58 0,3 C 0,0 C -2,8 C 89 % 1010,8 hPa 0,0 l/m 0 min 0 min 0 W/m 3,2 km/h (1 Bft) 100,00 %
11.12.2022 17:00 0,3 C 0,0 C -2,8 C 89 % 1010,8 hPa 0,0 l/m 0 min 0 min 0 W/m 0,0 km/h (0 Bft) 100,00 %
11.12.2022 17:02 0,3 C 0,0 C -2,8 C 89 % 1010,8 hPa 0,0 l/m 0 min 0 min 0 W/m 6,4 km/h (2 Bft) 100,00 %
11.12.2022 17:04 0,3 C 0,0 C -2,8 C 89 % 1010,8 hPa 0,0 l/m 0 min 0 min 0 W/m 3,2 km/h (1 Bft) 97,87 %
11.12.2022 17:06 0,3 C -0,6 C -2,8 C 89 % 1010,8 hPa 0,0 l/m 0 min 0 min 0 W/m 0,0 km/h (0 Bft) 100,00 %
11.12.2022 17:08 0,3 C 0,0 C -2,8 C 89 % 1010,9 hPa 0,0 l/m 0 min 0 min 0 W/m 0,0 km/h (0 Bft) 100,00 %
11.12.2022 17:10 0,3 C 0,0 C -2,8 C 89 % 1010,9 hPa 0,0 l/m 0 min 0 min 0 W/m 0,0 km/h (0 Bft) 97,87 %
11.12.2022 17:12 0,3 C -0,6 C -2,8 C 89 % 1010,9 hPa 0,0 l/m 0 min 0 min 0 W/m 0,0 km/h (0 Bft) 97,87 %
11.12.2022 17:14 0,3 C -0,6 C -2,8 C 89 % 1010,9 hPa 0,0 l/m 0 min 0 min 0 W/m 0,0 km/h (0 Bft) 95,92 %
11.12.2022 17:16 0,3 C -0,6 C -2,8 C 89 % 1010,9 hPa 0,0 l/m 0 min 0 min 0 W/m 0,0 km/h (0 Bft) 97,87 %
11.12.2022 17:18 0,3 C -0,6 C -2,8 C 89 % 1010,8 hPa 0,0 l/m 0 min 0 min 0 W/m 3,2 km/h (1 Bft) 97,14 %
11.12.2022 17:20 0,3 C -0,6 C -2,8 C 89 % 1010,9 hPa 0,0 l/m 0 min 0 min 0 W/m 0,0 km/h (0 Bft) 96,36 %
11.12.2022 17:22 0,3 C -0,6 C -2,8 C 89 % 1010,9 hPa 0,0 l/m 0 min 0 min 0 W/m 0,0 km/h (0 Bft) 95,74 %
11.12.2022 17:24 0,2 C -0,6 C -2,8 C 89 % 1010,9 hPa 0,0 l/m 0 min 0 min 0 W/m 0,0 km/h (0 Bft) 97,87 %
11.12.2022 17:26 0,3 C -0,6 C -2,8 C 89 % 1010,9 hPa 0,0 l/m 0 min 0 min 0 W/m 0,0 km/h (0 Bft) 97,87 %
11.12.2022 17:28 0,2 C -0,6 C -2,8 C 89 % 1010,9 hPa 0,0 l/m 0 min 0 min 0 W/m 0,0 km/h (0 Bft) 97,96 %
11.12.2022 17:30 0,2 C -0,6 C -2,8 C 89 % 1010,9 hPa 0,0 l/m 0 min 0 min 0 W/m 3,2 km/h (1 Bft) 97,87 %
11.12.2022 17:32 0,2 C -0,6 C -2,8 C 89 % 1010,9 hPa 0,0 l/m 0 min 0 min 0 W/m 0,0 km/h (0 Bft) 97,87 %
11.12.2022 17:34 0,2 C -0,6 C -2,8 C 89 % 1010,9 hPa 0,0 l/m 0 min 0 min 0 W/m 3,2 km/h (1 Bft) 97,87 %
11.12.2022 17:36 0,2 C -0,6 C -2,8 C 89 % 1010,9 hPa 0,0 l/m 0 min 0 min 0 W/m 3,2 km/h (1 Bft) 97,87 %
11.12.2022 17:38 0,2 C -0,6 C -2,8 C 89 % 1010,9 hPa 0,0 l/m 0 min 0 min 0 W/m 3,2 km/h (1 Bft) 97,87 %
11.12.2022 17:40 0,2 C -0,6 C -2,8 C 89 % 1010,9 hPa 0,0 l/m 0 min 0 min 0 W/m 3,2 km/h (1 Bft) 97,83 %
11.12.2022 17:42 0,2 C -0,6 C -2,8 C 90 % 1010,9 hPa 0,0 l/m 0 min 0 min 0 W/m 3,2 km/h (1 Bft) 95,74 %
11.12.2022 17:44 0,2 C -0,6 C -2,8 C 90 % 1010,9 hPa 0,0 l/m 0 min 0 min 0 W/m 0,0 km/h (0 Bft) 97,87 %
11.12.2022 17:46 0,2 C -0,6 C -2,8 C 90 % 1010,9 hPa 0,0 l/m 0 min 0 min 0 W/m 0,0 km/h (0 Bft) 95,74 %
11.12.2022 17:48 0,2 C -0,6 C -2,8 C 90 % 1010,8 hPa 0,0 l/m 0 min 0 min 0 W/m 0,0 km/h (0 Bft) 97,87 %
11.12.2022 17:50 0,2 C -0,6 C -2,8 C 90 % 1010,8 hPa 0,0 l/m 0 min 0 min 0 W/m 3,2 km/h (1 Bft) 100,00 %
11.12.2022 17:52 0,2 C -0,6 C -2,8 C 90 % 1010,8 hPa 0,0 l/m 0 min 0 min 0 W/m 3,2 km/h (1 Bft) 100,00 %
11.12.2022 17:54 0,1 C -0,6 C -2,8 C 90 % 1010,8 hPa 0,0 l/m 0 min 0 min 0 W/m 0,0 km/h (0 Bft) 100,00 %
11.12.2022 17:56 0,1 C -0,6 C -2,8 C 90 % 1010,7 hPa 0,0 l/m 0 min 0 min 0 W/m 0,0 km/h (0 Bft) 97,87 %
11.12.2022 17:58 0,1 C -0,6 C -2,8 C 90 % 1010,7 hPa 0,0 l/m 0 min 0 min 0 W/m 0,0 km/h (0 Bft) 97,87 %
11.12.2022 18:00 0,1 C -0,6 C -2,8 C 90 % 1010,8 hPa 0,0 l/m 0 min 0 min 0 W/m 3,2 km/h (1 Bft) 100,00 %
11.12.2022 18:02 0,1 C -0,6 C -2,8 C 90 % 1010,7 hPa 0,0 l/m 0 min 0 min 0 W/m 0,0 km/h (0 Bft) 97,87 %
11.12.2022 18:04 0,1 C -0,6 C -2,8 C 90 % 1010,8 hPa 0,0 l/m 0 min 0 min 0 W/m 0,0 km/h (0 Bft) 100,00 %
11.12.2022 18:08 0,1 C -0,6 C -2,8 C 90 % 1010,8 hPa 0,0 l/m 0 min 0 min 0 W/m 6,4 km/h (2 Bft) 96,84 %
11.12.2022 18:10 0,1 C -0,6 C -2,8 C 90 % 1010,8 hPa 0,0 l/m 0 min 0 min 0 W/m 3,2 km/h (1 Bft) 95,74 %
11.12.2022 18:12 0,1 C -0,6 C -2,8 C 90 % 1010,7 hPa 0,0 l/m 0 min 0 min 0 W/m 0,0 km/h (0 Bft) 97,87 %
11.12.2022 18:14 0,1 C -0,6 C -2,8 C 90 % 1010,8 hPa 0,0 l/m 0 min 0 min 0 W/m 0,0 km/h (0 Bft) 97,87 %
11.12.2022 18:16 0,1 C -0,6 C -2,8 C 90 % 1010,7 hPa 0,0 l/m 0 min 0 min 0 W/m 3,2 km/h (1 Bft) 97,87 %
11.12.2022 18:18 0,1 C -0,6 C -2,8 C 90 % 1010,7 hPa 0,0 l/m 0 min 0 min 0 W/m 0,0 km/h (0 Bft) 97,83 %
11.12.2022 18:20 0,1 C -0,6 C -2,8 C 90 % 1010,8 hPa 0,0 l/m 0 min 0 min 0 W/m 0,0 km/h (0 Bft) 97,87 %
11.12.2022 18:22 0,1 C -0,6 C -2,8 C 90 % 1010,8 hPa 0,0 l/m 0 min 0 min 0 W/m 3,2 km/h (1 Bft) 95,74 %
11.12.2022 18:24 0,1 C -0,6 C -2,8 C 90 % 1010,7 hPa 0,0 l/m 0 min 0 min 0 W/m 3,2 km/h (1 Bft) 97,87 %
11.12.2022 18:26 0,1 C -0,6 C -2,8 C 90 % 1010,7 hPa 0,0 l/m 0 min 0 min 0 W/m 3,2 km/h (1 Bft) 97,87 %
11.12.2022 18:28 0,1 C -0,6 C -2,8 C 90 % 1010,7 hPa 0,0 l/m 0 min 0 min 0 W/m 3,2 km/h (1 Bft) 95,74 %
11.12.2022 18:30 0,1 C -0,6 C -2,8 C 90 % 1010,8 hPa 0,0 l/m 0 min 0 min 0 W/m 6,4 km/h (2 Bft) 97,83 %
11.12.2022 18:32 0,1 C -0,6 C -2,8 C 90 % 1010,7 hPa 0,0 l/m 0 min 0 min 0 W/m 0,0 km/h (0 Bft) 95,74 %
11.12.2022 18:34 0,1 C -0,6 C -2,8 C 90 % 1010,8 hPa 0,0 l/m 0 min 0 min 0 W/m 0,0 km/h (0 Bft) 95,74 %
11.12.2022 18:36 0,1 C -0,6 C -2,8 C 90 % 1010,8 hPa 0,0 l/m 0 min 0 min 0 W/m 0,0 km/h (0 Bft) 97,87 %
11.12.2022 18:38 0,1 C -0,6 C -2,8 C 90 % 1010,8 hPa 0,0 l/m 0 min 0 min 0 W/m 0,0 km/h (0 Bft) 97,87 %
11.12.2022 18:40 0,1 C -0,6 C -2,8 C 90 % 1010,8 hPa 0,0 l/m 0 min 0 min 0 W/m 0,0 km/h (0 Bft) 95,74 %
11.12.2022 18:42 0,1 C -0,6 C -2,8 C 90 % 1010,9 hPa 0,0 l/m 0 min 0 min 0 W/m 0,0 km/h (0 Bft) 95,74 %
11.12.2022 18:44 0,1 C -0,6 C -2,8 C 90 % 1010,8 hPa 0,0 l/m 0 min 0 min 0 W/m 0,0 km/h (0 Bft) 97,83 %
11.12.2022 18:46 0,1 C -0,6 C -2,8 C 90 % 1010,8 hPa 0,0 l/m 0 min 0 min 0 W/m 0,0 km/h (0 Bft) 95,74 %
11.12.2022 18:48 0,1 C -0,6 C -2,8 C 90 % 1010,8 hPa 0,0 l/m 0 min 0 min 0 W/m 0,0 km/h (0 Bft) 97,87 %
11.12.2022 18:50 0,1 C -0,6 C -2,8 C 90 % 1010,8 hPa 0,0 l/m 0 min 0 min 0 W/m 0,0 km/h (0 Bft) 97,87 %
11.12.2022 18:52 0,1 C -0,6 C -2,8 C 90 % 1010,8 hPa 0,0 l/m 0 min 0 min 0 W/m 0,0 km/h (0 Bft) 97,87 %
11.12.2022 18:54 0,1 C -0,6 C -2,8 C 90 % 1010,8 hPa 0,0 l/m 0 min 0 min 0 W/m 0,0 km/h (0 Bft) 93,62 %
11.12.2022 18:56 0,1 C -0,6 C -2,8 C 90 % 1010,8 hPa 0,0 l/m 0 min 0 min 0 W/m 0,0 km/h (0 Bft) 97,83 %
11.12.2022 18:58 0,1 C -0,6 C -2,8 C 90 % 1010,8 hPa 0,0 l/m 0 min 0 min 0 W/m 0,0 km/h (0 Bft) 97,87 %
11.12.2022 19:00 0,1 C -0,6 C -2,8 C 90 % 1010,7 hPa 0,0 l/m 0 min 0 min 0 W/m 0,0 km/h (0 Bft) 97,87 %
11.12.2022 19:02 0,0 C -0,6 C -2,8 C 90 % 1010,8 hPa 0,0 l/m 0 min 0 min 0 W/m 0,0 km/h (0 Bft) 95,74 %
11.12.2022 19:04 0,1 C -0,6 C -2,8 C 90 % 1010,7 hPa 0,0 l/m 0 min 0 min 0 W/m 0,0 km/h (0 Bft) 97,87 %
11.12.2022 19:06 0,0 C -0,6 C -2,8 C 90 % 1010,8 hPa 0,0 l/m 0 min 0 min 0 W/m 0,0 km/h (0 Bft) 97,87 %
11.12.2022 19:08 0,1 C -0,6 C -2,8 C 90 % 1010,7 hPa 0,0 l/m 0 min 0 min 0 W/m 0,0 km/h (0 Bft) 97,83 %
11.12.2022 19:10 0,1 C -0,6 C -2,8 C 90 % 1010,7 hPa 0,0 l/m 0 min 0 min 0 W/m 0,0 km/h (0 Bft) 97,87 %
11.12.2022 19:12 0,0 C -0,6 C -2,8 C 90 % 1010,7 hPa 0,0 l/m 0 min 0 min 0 W/m 0,0 km/h (0 Bft) 97,87 %
11.12.2022 19:14 0,0 C -0,6 C -2,8 C 90 % 1010,7 hPa 0,0 l/m 0 min 0 min 0 W/m 0,0 km/h (0 Bft) 97,87 %
11.12.2022 19:16 0,0 C -0,6 C -2,8 C 90 % 1010,7 hPa 0,0 l/m 0 min 0 min 0 W/m 0,0 km/h (0 Bft) 97,87 %
11.12.2022 19:18 0,0 C -0,6 C -2,8 C 90 % 1010,7 hPa 0,0 l/m 0 min 0 min 0 W/m 0,0 km/h (0 Bft) 97,87 %
11.12.2022 19:20 0,0 C -0,6 C -2,8 C 90 % 1010,7 hPa 0,0 l/m 0 min 0 min 0 W/m 0,0 km/h (0 Bft) 95,74 %
11.12.2022 19:22 0,0 C -0,6 C -2,8 C 90 % 1010,7 hPa 0,0 l/m 0 min 0 min 0 W/m 0,0 km/h (0 Bft) 97,30 %
11.12.2022 19:24 0,0 C -0,6 C -2,8 C 90 % 1010,7 hPa 0,0 l/m 0 min 0 min 0 W/m 3,2 km/h (1 Bft) 93,48 %
11.12.2022 19:26 0,0 C -0,6 C -2,8 C 90 % 1010,7 hPa 0,0 l/m 0 min 0 min 0 W/m 3,2 km/h (1 Bft) 98,15 %
11.12.2022 19:28 0,1 C -0,6 C -2,8 C 90 % 1010,7 hPa 0,0 l/m 0 min 0 min 0 W/m 0,0 km/h (0 Bft) 97,87 %
11.12.2022 19:30 0,1 C -0,6 C -2,8 C 90 % 1010,7 hPa 0,0 l/m 0 min 0 min 0 W/m 3,2 km/h (1 Bft) 95,74 %
11.12.2022 19:32 0,1 C -0,6 C -2,8 C 90 % 1010,7 hPa 0,0 l/m 0 min 0 min 0 W/m 3,2 km/h (1 Bft) 94,00 %
11.12.2022 19:34 0,1 C -0,6 C -2,8 C 90 % 1010,7 hPa 0,0 l/m 0 min 0 min 0 W/m 3,2 km/h (1 Bft) 64,86 %
11.12.2022 19:36 0,1 C -0,6 C -2,8 C 90 % 1010,7 hPa 0,0 l/m 0 min 0 min 0 W/m 0,0 km/h (0 Bft) 85,11 %
11.12.2022 19:38 0,1 C -0,6 C -2,8 C 90 % 1010,8 hPa 0,0 l/m 0 min 0 min 0 W/m 0,0 km/h (0 Bft) 94,34 %
11.12.2022 19:40 0,1 C -0,6 C -2,8 C 90 % 1010,7 hPa 0,0 l/m 0 min 0 min 0 W/m 0,0 km/h (0 Bft) 95,74 %
11.12.2022 19:42 0,1 C -0,6 C -2,8 C 90 % 1010,8 hPa 0,0 l/m 0 min 0 min 0 W/m 0,0 km/h (0 Bft) 96,00 %
11.12.2022 19:44 0,1 C -0,6 C -2,8 C 90 % 1010,8 hPa 0,0 l/m 0 min 0 min 0 W/m 0,0 km/h (0 Bft) 97,30 %
11.12.2022 19:46 0,1 C -0,6 C -2,8 C 90 % 1010,8 hPa 0,0 l/m 0 min 0 min 0 W/m 0,0 km/h (0 Bft) 95,74 %
11.12.2022 19:48 0,1 C -0,6 C -2,8 C 90 % 1010,7 hPa 0,0 l/m 0 min 0 min 0 W/m 0,0 km/h (0 Bft) 96,30 %
11.12.2022 19:50 0,1 C -0,6 C -2,8 C 90 % 1010,7 hPa 0,0 l/m 0 min 0 min 0 W/m 0,0 km/h (0 Bft) 95,92 %
11.12.2022 19:52 0,1 C -0,6 C -2,8 C 90 % 1010,7 hPa 0,0 l/m 0 min 0 min 0 W/m 3,2 km/h (1 Bft) 93,62 %
11.12.2022 19:54 0,1 C -0,6 C -2,8 C 90 % 1010,7 hPa 0,0 l/m 0 min 0 min 0 W/m 0,0 km/h (0 Bft) 91,49 %
11.12.2022 19:56 0,1 C -0,6 C -2,8 C 90 % 1010,7 hPa 0,0 l/m 0 min 0 min 0 W/m 0,0 km/h (0 Bft) 95,74 %
11.12.2022 19:58 0,1 C -0,6 C -2,8 C 90 % 1010,7 hPa 0,0 l/m 0 min 0 min 0 W/m 0,0 km/h (0 Bft) 93,62 %
11.12.2022 20:00 0,1 C -0,6 C -2,8 C 90 % 1010,7 hPa 0,0 l/m 0 min 0 min 0 W/m 0,0 km/h (0 Bft) 93,48 %
11.12.2022 20:02 0,1 C -0,6 C -2,8 C 90 % 1010,7 hPa 0,0 l/m 0 min 0 min 0 W/m 0,0 km/h (0 Bft) 95,74 %
11.12.2022 20:04 0,1 C -0,6 C -2,8 C 90 % 1010,6 hPa 0,0 l/m 0 min 0 min 0 W/m 0,0 km/h (0 Bft) 95,74 %
11.12.2022 20:06 0,1 C -0,6 C -2,8 C 90 % 1010,6 hPa 0,0 l/m 0 min 0 min 0 W/m 0,0 km/h (0 Bft) 95,83 %
11.12.2022 20:08 0,1 C -0,6 C -2,8 C 90 % 1010,6 hPa 0,0 l/m 0 min 0 min 0 W/m 0,0 km/h (0 Bft) 94,29 %
11.12.2022 20:10 0,1 C -0,6 C -2,8 C 90 % 1010,6 hPa 0,0 l/m 0 min 0 min 0 W/m 3,2 km/h (1 Bft) 91,67 %
11.12.2022 20:12 0,1 C -0,6 C -2,8 C 90 % 1010,6 hPa 0,0 l/m 0 min 0 min 0 W/m 0,0 km/h (0 Bft) 97,87 %
11.12.2022 20:14 0,1 C -0,6 C -2,8 C 90 % 1010,6 hPa 0,0 l/m 0 min 0 min 0 W/m 0,0 km/h (0 Bft) 93,62 %
11.12.2022 20:16 0,1 C -0,6 C -2,8 C 90 % 1010,6 hPa 0,0 l/m 0 min 0 min 0 W/m 0,0 km/h (0 Bft) 97,87 %
11.12.2022 20:18 0,1 C -0,6 C -2,8 C 90 % 1010,6 hPa 0,0 l/m 0 min 0 min 0 W/m 3,2 km/h (1 Bft) 97,83 %
11.12.2022 20:20 0,1 C -0,6 C -2,8 C 90 % 1010,6 hPa 0,0 l/m 0 min 0 min 0 W/m 0,0 km/h (0 Bft) 97,87 %
11.12.2022 20:22 0,1 C -0,6 C -2,8 C 90 % 1010,6 hPa 0,0 l/m 0 min 0 min 0 W/m 0,0 km/h (0 Bft) 97,87 %
11.12.2022 20:24 0,1 C -0,6 C -2,8 C 90 % 1010,6 hPa 0,0 l/m 0 min 0 min 0 W/m 0,0 km/h (0 Bft) 100,00 %
11.12.2022 20:26 0,1 C -0,6 C -2,8 C 90 % 1010,6 hPa 0,0 l/m 0 min 0 min 0 W/m 0,0 km/h (0 Bft) 100,00 %
11.12.2022 20:28 0,1 C 0,0 C -2,8 C 90 % 1010,6 hPa 0,0 l/m 0 min 0 min 0 W/m 0,0 km/h (0 Bft) 100,00 %
11.12.2022 20:30 0,2 C 0,0 C -2,8 C 90 % 1010,7 hPa 0,0 l/m 0 min 0 min 0 W/m 0,0 km/h (0 Bft) 100,00 %
11.12.2022 20:32 0,2 C -0,6 C -2,8 C 90 % 1010,6 hPa 0,0 l/m 0 min 0 min 0 W/m 3,2 km/h (1 Bft) 100,00 %
11.12.2022 20:34 0,2 C -0,6 C -2,8 C 90 % 1010,7 hPa 0,0 l/m 0 min 0 min 0 W/m 0,0 km/h (0 Bft) 100,00 %
11.12.2022 20:36 0,2 C 0,0 C -2,8 C 90 % 1010,7 hPa 0,0 l/m 0 min 0 min 0 W/m 3,2 km/h (1 Bft) 100,00 %
11.12.2022 20:38 0,2 C 0,0 C -2,8 C 90 % 1010,7 hPa 0,0 l/m 0 min 0 min 0 W/m 0,0 km/h (0 Bft) 100,00 %
11.12.2022 20:40 0,2 C 0,0 C -2,8 C 90 % 1010,7 hPa 0,0 l/m 0 min 0 min 0 W/m 3,2 km/h (1 Bft) 100,00 %
11.12.2022 20:42 0,2 C 0,0 C -2,8 C 90 % 1010,7 hPa 0,0 l/m 0 min 0 min 0 W/m 0,0 km/h (0 Bft) 100,00 %
11.12.2022 20:44 0,2 C -0,6 C -2,8 C 90 % 1010,7 hPa 0,0 l/m 0 min 0 min 0 W/m 0,0 km/h (0 Bft) 100,00 %
11.12.2022 20:46 0,2 C -0,6 C -2,8 C 90 % 1010,7 hPa 0,0 l/m 0 min 0 min 0 W/m 0,0 km/h (0 Bft) 100,00 %
11.12.2022 20:48 0,2 C 0,0 C -2,8 C 90 % 1010,7 hPa 0,0 l/m 0 min 0 min 0 W/m 0,0 km/h (0 Bft) 100,00 %
11.12.2022 20:50 0,2 C -0,6 C -2,8 C 90 % 1010,6 hPa 0,0 l/m 0 min 0 min 0 W/m 6,4 km/h (2 Bft) 100,00 %
11.12.2022 20:52 0,2 C -0,6 C -2,8 C 90 % 1010,6 hPa 0,0 l/m 0 min 0 min 0 W/m 3,2 km/h (1 Bft) 97,87 %
11.12.2022 20:54 0,2 C -0,6 C -2,8 C 90 % 1010,6 hPa 0,0 l/m 0 min 0 min 0 W/m 3,2 km/h (1 Bft) 100,00 %
11.12.2022 20:56 0,2 C -0,6 C -2,8 C 91 % 1010,6 hPa 0,0 l/m 0 min 0 min 0 W/m 0,0 km/h (0 Bft) 97,83 %
11.12.2022 20:58 0,2 C -0,6 C -2,8 C 91 % 1010,6 hPa 0,0 l/m 0 min 0 min 0 W/m 0,0 km/h (0 Bft) 100,00 %
11.12.2022 21:00 0,2 C -0,6 C -2,8 C 91 % 1010,6 hPa 0,0 l/m 0 min 0 min 0 W/m 0,0 km/h (0 Bft) 100,00 %
11.12.2022 21:02 0,2 C -0,6 C -2,8 C 91 % 1010,6 hPa 0,0 l/m 0 min 0 min 0 W/m 0,0 km/h (0 Bft) 100,00 %
11.12.2022 21:04 0,2 C -0,6 C -2,8 C 91 % 1010,6 hPa 0,0 l/m 0 min 0 min 0 W/m 3,2 km/h (1 Bft) 100,00 %
11.12.2022 21:06 0,2 C -0,6 C -2,8 C 91 % 1010,7 hPa 0,0 l/m 0 min 0 min 0 W/m 3,2 km/h (1 Bft) 100,00 %
11.12.2022 21:08 0,2 C -0,6 C -2,8 C 91 % 1010,7 hPa 0,0 l/m 0 min 0 min 0 W/m 0,0 km/h (0 Bft) 100,00 %
11.12.2022 21:10 0,2 C -0,6 C -2,8 C 91 % 1010,6 hPa 0,0 l/m 0 min 0 min 0 W/m 3,2 km/h (1 Bft) 97,83 %
11.12.2022 21:12 0,2 C -0,6 C -2,8 C 91 % 1010,7 hPa 0,0 l/m 0 min 0 min 0 W/m 0,0 km/h (0 Bft) 100,00 %
11.12.2022 21:14 0,2 C -0,6 C -2,8 C 91 % 1010,7 hPa 0,0 l/m 0 min 0 min 0 W/m 0,0 km/h (0 Bft) 97,87 %
11.12.2022 21:16 0,2 C -0,6 C -2,8 C 91 % 1010,7 hPa 0,0 l/m 0 min 0 min 0 W/m 0,0 km/h (0 Bft) 100,00 %
11.12.2022 21:18 0,2 C -0,6 C -2,8 C 91 % 1010,6 hPa 0,0 l/m 0 min 0 min 0 W/m 0,0 km/h (0 Bft) 100,00 %
11.12.2022 21:20 0,3 C -0,6 C -2,8 C 91 % 1010,6 hPa 0,0 l/m 0 min 0 min 0 W/m 0,0 km/h (0 Bft) 93,62 %
11.12.2022 21:22 0,3 C -0,6 C -2,8 C 91 % 1010,6 hPa 0,0 l/m 0 min 0 min 0 W/m 3,2 km/h (1 Bft) 97,83 %
11.12.2022 21:24 0,3 C -0,6 C -2,8 C 91 % 1010,6 hPa 0,0 l/m 0 min 0 min 0 W/m 3,2 km/h (1 Bft) 95,74 %
11.12.2022 21:26 0,2 C -0,6 C -2,8 C 91 % 1010,7 hPa 0,0 l/m 0 min 0 min 0 W/m 0,0 km/h (0 Bft) 95,74 %
11.12.2022 21:28 0,2 C -0,6 C -2,8 C 91 % 1010,7 hPa 0,0 l/m 0 min 0 min 0 W/m 0,0 km/h (0 Bft) 97,87 %
11.12.2022 21:30 0,2 C -0,6 C -2,8 C 91 % 1010,7 hPa 0,0 l/m 0 min 0 min 0 W/m 3,2 km/h (1 Bft) 100,00 %
11.12.2022 21:32 0,2 C -0,6 C -2,8 C 91 % 1010,7 hPa 0,0 l/m 0 min 0 min 0 W/m 0,0 km/h (0 Bft) 97,37 %
11.12.2022 21:34 0,2 C -0,6 C -2,8 C 91 % 1010,6 hPa 0,0 l/m 0 min 0 min 0 W/m 3,2 km/h (1 Bft) 97,92 %
11.12.2022 21:36 0,2 C -0,6 C -2,8 C 91 % 1010,6 hPa 0,0 l/m 0 min 0 min 0 W/m 3,2 km/h (1 Bft) 98,11 %
11.12.2022 21:38 0,2 C 0,0 C -2,8 C 91 % 1010,6 hPa 0,0 l/m 0 min 0 min 0 W/m 0,0 km/h (0 Bft) 96,00 %
11.12.2022 21:40 0,2 C 0,0 C -2,8 C 92 % 1010,6 hPa 0,0 l/m 0 min 0 min 0 W/m 0,0 km/h (0 Bft) 94,74 %
11.12.2022 21:42 0,3 C 0,0 C -2,8 C 91 % 1010,6 hPa 0,0 l/m 0 min 0 min 0 W/m 0,0 km/h (0 Bft) 98,11 %
11.12.2022 21:44 0,3 C 0,0 C -2,8 C 91 % 1010,6 hPa 0,0 l/m 0 min 0 min 0 W/m 0,0 km/h (0 Bft) 95,92 %
11.12.2022 21:46 0,3 C 0,0 C -2,8 C 92 % 1010,6 hPa 0,0 l/m 0 min 0 min 0 W/m 3,2 km/h (1 Bft) 97,87 %
11.12.2022 21:48 0,3 C 0,0 C -2,8 C 92 % 1010,6 hPa 0,0 l/m 0 min 0 min 0 W/m 0,0 km/h (0 Bft) 95,74 %
11.12.2022 21:50 0,3 C 0,0 C -2,8 C 92 % 1010,6 hPa 0,0 l/m 0 min 0 min 0 W/m 0,0 km/h (0 Bft) 95,74 %
11.12.2022 21:52 0,3 C 0,0 C -2,8 C 92 % 1010,6 hPa 0,0 l/m 0 min 0 min 0 W/m 0,0 km/h (0 Bft) 95,74 %
11.12.2022 21:54 0,3 C 0,0 C -2,8 C 92 % 1010,6 hPa 0,0 l/m 0 min 0 min 0 W/m 0,0 km/h (0 Bft) 95,74 %
11.12.2022 21:56 0,3 C 0,0 C -2,8 C 92 % 1010,6 hPa 0,0 l/m 0 min 0 min 0 W/m 0,0 km/h (0 Bft) 89,13 %
11.12.2022 21:58 0,3 C 0,0 C -2,8 C 92 % 1010,6 hPa 0,0 l/m 0 min 0 min 0 W/m 3,2 km/h (1 Bft) 89,36 %
11.12.2022 22:00 0,3 C 0,0 C -2,8 C 92 % 1010,5 hPa 0,0 l/m 0 min 0 min 0 W/m 0,0 km/h (0 Bft) 93,62 %
11.12.2022 22:02 0,3 C 0,0 C -2,8 C 92 % 1010,6 hPa 0,0 l/m 0 min 0 min 0 W/m 0,0 km/h (0 Bft) 93,62 %
11.12.2022 22:04 0,3 C 0,0 C -2,8 C 92 % 1010,6 hPa 0,0 l/m 0 min 0 min 0 W/m 0,0 km/h (0 Bft) 93,62 %
11.12.2022 22:06 0,3 C 0,0 C -2,8 C 92 % 1010,5 hPa 0,0 l/m 0 min 0 min 0 W/m 0,0 km/h (0 Bft) 93,75 %
11.12.2022 22:08 0,3 C 0,0 C -2,8 C 92 % 1010,6 hPa 0,0 l/m 0 min 0 min 0 W/m 0,0 km/h (0 Bft) 94,29 %
11.12.2022 22:10 0,3 C 0,0 C -2,8 C 92 % 1010,6 hPa 0,0 l/m 0 min 0 min 0 W/m 0,0 km/h (0 Bft) 93,62 %
11.12.2022 22:12 0,3 C 0,0 C -2,8 C 92 % 1010,6 hPa 0,0 l/m 0 min 0 min 0 W/m 0,0 km/h (0 Bft) 95,74 %
11.12.2022 22:14 0,4 C 0,0 C -2,8 C 92 % 1010,6 hPa 0,0 l/m 0 min 0 min 0 W/m 0,0 km/h (0 Bft) 95,65 %
11.12.2022 22:16 0,4 C 0,0 C -2,8 C 92 % 1010,6 hPa 0,0 l/m 0 min 0 min 0 W/m 0,0 km/h (0 Bft) 91,49 %
11.12.2022 22:18 0,4 C 0,0 C -2,8 C 92 % 1010,6 hPa 0,0 l/m 0 min 0 min 0 W/m 3,2 km/h (1 Bft) 93,62 %
11.12.2022 22:20 0,4 C 0,0 C -2,8 C 92 % 1010,6 hPa 0,0 l/m 0 min 0 min 0 W/m 0,0 km/h (0 Bft) 95,74 %
11.12.2022 22:22 0,4 C 0,0 C -2,8 C 92 % 1010,7 hPa 0,0 l/m 0 min 0 min 0 W/m 0,0 km/h (0 Bft) 95,74 %
11.12.2022 22:24 0,4 C 0,0 C -2,8 C 92 % 1010,7 hPa 0,0 l/m 0 min 0 min 0 W/m 0,0 km/h (0 Bft) 95,74 %
11.12.2022 22:26 0,4 C 0,0 C -2,8 C 92 % 1010,7 hPa 0,0 l/m 0 min 0 min 0 W/m 0,0 km/h (0 Bft) 93,48 %
11.12.2022 22:28 0,4 C 0,0 C -2,8 C 92 % 1010,7 hPa 0,0 l/m 0 min 0 min 0 W/m 0,0 km/h (0 Bft) 93,62 %
11.12.2022 22:30 0,4 C 0,0 C -2,8 C 92 % 1010,8 hPa 0,0 l/m 0 min 0 min 0 W/m 0,0 km/h (0 Bft) 93,62 %
11.12.2022 22:32 0,4 C 0,0 C -2,8 C 92 % 1010,7 hPa 0,0 l/m 0 min 0 min 0 W/m 0,0 km/h (0 Bft) 97,87 %
11.12.2022 22:34 0,4 C 0,0 C -2,8 C 92 % 1010,7 hPa 0,0 l/m 0 min 0 min 0 W/m 3,2 km/h (1 Bft) 97,87 %
11.12.2022 22:36 0,4 C 0,0 C -2,8 C 92 % 1010,7 hPa 0,0 l/m 0 min 0 min 0 W/m 0,0 km/h (0 Bft) 95,74 %
11.12.2022 22:38 0,4 C 0,0 C -2,8 C 92 % 1010,7 hPa 0,0 l/m 0 min 0 min 0 W/m 0,0 km/h (0 Bft) 100,00 %
11.12.2022 22:40 0,4 C 0,0 C -2,8 C 92 % 1010,7 hPa 0,0 l/m 0 min 0 min 0 W/m 0,0 km/h (0 Bft) 97,87 %
11.12.2022 22:42 0,4 C 0,0 C -2,8 C 92 % 1010,7 hPa 0,0 l/m 0 min 0 min 0 W/m 0,0 km/h (0 Bft) 97,87 %
11.12.2022 22:44 0,5 C 0,0 C -2,8 C 92 % 1010,7 hPa 0,0 l/m 0 min 0 min 0 W/m 0,0 km/h (0 Bft) 97,87 %
11.12.2022 22:46 0,5 C 0,0 C -2,8 C 92 % 1010,7 hPa 0,0 l/m 0 min 0 min 0 W/m 0,0 km/h (0 Bft) 97,87 %
11.12.2022 22:48 0,5 C 0,0 C -2,8 C 92 % 1010,7 hPa 0,0 l/m 0 min 0 min 0 W/m 0,0 km/h (0 Bft) 97,87 %
11.12.2022 22:50 0,5 C 0,0 C -2,8 C 92 % 1010,7 hPa 0,0 l/m 0 min 0 min 0 W/m 0,0 km/h (0 Bft) 97,87 %
11.12.2022 22:52 0,5 C 0,0 C -2,8 C 92 % 1010,7 hPa 0,0 l/m 0 min 0 min 0 W/m 0,0 km/h (0 Bft) 93,48 %
11.12.2022 22:54 0,5 C 0,0 C -2,8 C 92 % 1010,7 hPa 0,0 l/m 0 min 0 min 0 W/m 3,2 km/h (1 Bft) 97,87 %
11.12.2022 22:56 0,5 C 0,0 C -2,8 C 92 % 1010,6 hPa 0,0 l/m 0 min 0 min 0 W/m 0,0 km/h (0 Bft) 97,87 %
11.12.2022 22:58 0,4 C 0,0 C -2,8 C 92 % 1010,7 hPa 0,0 l/m 0 min 0 min 0 W/m 0,0 km/h (0 Bft) 100,00 %
11.12.2022 23:00 0,4 C 0,0 C -2,8 C 92 % 1010,7 hPa 0,0 l/m 0 min 0 min 0 W/m 0,0 km/h (0 Bft) 100,00 %
11.12.2022 23:02 0,4 C 0,0 C -2,8 C 92 % 1010,7 hPa 0,0 l/m 0 min 0 min 0 W/m 0,0 km/h (0 Bft) 100,00 %
11.12.2022 23:04 0,4 C 0,0 C -2,8 C 92 % 1010,7 hPa 0,0 l/m 0 min 0 min 0 W/m 0,0 km/h (0 Bft) 95,74 %
11.12.2022 23:06 0,5 C 0,0 C -2,8 C 92 % 1010,8 hPa 0,0 l/m 0 min 0 min 0 W/m 0,0 km/h (0 Bft) 100,00 %
11.12.2022 23:08 0,5 C 0,0 C -2,8 C 92 % 1010,8 hPa 0,0 l/m 0 min 0 min 0 W/m 0,0 km/h (0 Bft) 95,74 %
11.12.2022 23:10 0,4 C 0,0 C -2,8 C 92 % 1010,7 hPa 0,0 l/m 0 min 0 min 0 W/m 3,2 km/h (1 Bft) 95,74 %
11.12.2022 23:12 0,5 C 0,0 C -2,8 C 92 % 1010,8 hPa 0,0 l/m 0 min 0 min 0 W/m 0,0 km/h (0 Bft) 100,00 %
11.12.2022 23:14 0,5 C 0,0 C -2,8 C 92 % 1010,8 hPa 0,0 l/m 0 min 0 min 0 W/m 0,0 km/h (0 Bft) 57,45 %
11.12.2022 23:16 0,4 C 0,0 C -2,8 C 92 % 1010,8 hPa 0,0 l/m 0 min 0 min 0 W/m 0,0 km/h (0 Bft) 100,00 %
11.12.2022 23:18 0,4 C 0,0 C -2,8 C 92 % 1010,8 hPa 0,0 l/m 0 min 0 min 0 W/m 0,0 km/h (0 Bft) 95,74 %
11.12.2022 23:20 0,4 C 0,0 C -2,8 C 92 % 1010,9 hPa 0,0 l/m 0 min 0 min 0 W/m 0,0 km/h (0 Bft) 97,87 %
11.12.2022 23:22 0,4 C 0,0 C -2,8 C 92 % 1010,9 hPa 0,0 l/m 0 min 0 min 0 W/m 0,0 km/h (0 Bft) 97,87 %
11.12.2022 23:24 0,4 C 0,0 C -2,8 C 92 % 1010,8 hPa 0,0 l/m 0 min 0 min 0 W/m 0,0 km/h (0 Bft) 95,74 %
11.12.2022 23:26 0,4 C 0,0 C -2,8 C 92 % 1010,9 hPa 0,0 l/m 0 min 0 min 0 W/m 0,0 km/h (0 Bft) 95,74 %
11.12.2022 23:28 0,4 C 0,0 C -2,8 C 92 % 1010,9 hPa 0,0 l/m 0 min 0 min 0 W/m 0,0 km/h (0 Bft) 93,48 %
11.12.2022 23:30 0,4 C 0,0 C -2,8 C 92 % 1010,9 hPa 0,0 l/m 0 min 0 min 0 W/m 0,0 km/h (0 Bft) 97,87 %
11.12.2022 23:32 0,4 C 0,0 C -2,8 C 92 % 1010,9 hPa 0,0 l/m 0 min 0 min 0 W/m 3,2 km/h (1 Bft) 97,87 %
11.12.2022 23:34 0,4 C 0,0 C -2,8 C 92 % 1010,9 hPa 0,0 l/m 0 min 0 min 0 W/m 0,0 km/h (0 Bft) 95,74 %
11.12.2022 23:36 0,4 C 0,0 C -2,8 C 92 % 1011,0 hPa 0,0 l/m 0 min 0 min 0 W/m 0,0 km/h (0 Bft) 95,74 %
11.12.2022 23:38 0,4 C 0,0 C -2,8 C 92 % 1011,0 hPa 0,0 l/m 0 min 0 min 0 W/m 0,0 km/h (0 Bft) 97,87 %
11.12.2022 23:40 0,4 C 0,0 C -2,8 C 92 % 1011,0 hPa 0,0 l/m 0 min 0 min 0 W/m 0,0 km/h (0 Bft) 97,87 %
11.12.2022 23:42 0,4 C 0,0 C -2,8 C 92 % 1011,0 hPa 0,0 l/m 0 min 0 min 0 W/m 0,0 km/h (0 Bft) 97,83 %
11.12.2022 23:44 0,4 C 0,0 C -2,8 C 92 % 1010,9 hPa 0,0 l/m 0 min 0 min 0 W/m 0,0 km/h (0 Bft) 95,74 %
11.12.2022 23:46 0,4 C 0,0 C -2,8 C 92 % 1011,0 hPa 0,0 l/m 0 min 0 min 0 W/m 0,0 km/h (0 Bft) 97,87 %
11.12.2022 23:48 0,4 C 0,0 C -2,8 C 92 % 1011,0 hPa 0,0 l/m 0 min 0 min 0 W/m 0,0 km/h (0 Bft) 100,00 %
11.12.2022 23:50 0,5 C 0,0 C -2,8 C 92 % 1011,0 hPa 0,0 l/m 0 min 0 min 0 W/m 0,0 km/h (0 Bft) 100,00 %
11.12.2022 23:52 0,5 C 0,0 C -2,8 C 92 % 1011,0 hPa 0,0 l/m 0 min 0 min 0 W/m 0,0 km/h (0 Bft) 95,74 %
11.12.2022 23:54 0,5 C 0,0 C -2,8 C 92 % 1011,0 hPa 0,0 l/m 0 min 0 min 0 W/m 0,0 km/h (0 Bft) 100,00 %
11.12.2022 23:56 0,5 C 0,0 C -2,8 C 92 % 1011,0 hPa 0,0 l/m 0 min 0 min 0 W/m 0,0 km/h (0 Bft) 100,00 %
11.12.2022 23:58 0,5 C 0,0 C -2,8 C 92 % 1010,9 hPa 0,0 l/m 0 min 0 min 0 W/m 0,0 km/h (0 Bft) 97,87 %
_ Min-Zeit 01:02 00:00 00:24 14:18 14:22 - - - - 00:02 04:18
Minimum _ -0,2 C -0,6 C -2,8 C 88 % 1010,3 hPa - - - - 0,0 km/h (0 Bft) 52,27 %
_ Max-Zeit 14:30 11:52 10:08 00:00 00:00 00:00 00:00 00:00 11:58 11:28 00:58
Maximum _ 0,8 C 0,6 C -1,7 C 96 % 1012,6 hPa 0,0 l/m 0 min 0 min 99 W/m 19,3 km/h
S-SW (3 Bft)
100,00 %
Durchschnitt _ 0,2 C -0,2 C -2,3 C 92 % 1011,2 hPa #0,0 l/m #0 min. #0 min. 36 W/m 4,0 km/h (1 Bft) 96,62 %
© 2022 W. Hausmann